<?xml version="1.0" encoding="UTF-8" standalone="no" ?>
<gpx xmlns="http://www.topografix.com/GPX/1/1" xmlns:xsi="http://www.w3.org/2001/XMLSchema-instance" xsi:schemaLocation="http://www.topografix.com/GPX/1/1 http://www.topografix.com/GPX/1/1/gpx.xsd" version="1.1" creator="VisuGPX - https://www.visugpx.com">
  <metadata>
    <name>VTT 13 mars 2019</name>
    <desc><![CDATA[VTT 13 mars 2019 vers mont Aurelien]]></desc>
  </metadata>
  <trk>
    <name><![CDATA[2019-02-10 11:43:46]]></name>
    <trkseg>
      <trkpt lat="43.43962" lon="5.8602">
        <ele>301.99</ele>
        <time>2019-02-10T08:35:36Z</time>
      </trkpt>
      <trkpt lat="43.43965" lon="5.86016">
        <ele>307.28</ele>
        <time>2019-02-10T08:35:53Z</time>
      </trkpt>
      <trkpt lat="43.43965" lon="5.86017">
        <ele>307.28</ele>
        <time>2019-02-10T08:35:54Z</time>
      </trkpt>
      <trkpt lat="43.43965" lon="5.86017">
        <ele>311.6</ele>
        <time>2019-02-10T08:35:57Z</time>
      </trkpt>
      <trkpt lat="43.43965" lon="5.86017">
        <ele>314.01</ele>
        <time>2019-02-10T08:35:59Z</time>
      </trkpt>
      <trkpt lat="43.43966" lon="5.86018">
        <ele>317.85</ele>
        <time>2019-02-10T08:36:04Z</time>
      </trkpt>
      <trkpt lat="43.43966" lon="5.86018">
        <ele>321.22</ele>
        <time>2019-02-10T08:36:07Z</time>
      </trkpt>
      <trkpt lat="43.43966" lon="5.86017">
        <ele>324.1</ele>
        <time>2019-02-10T08:36:10Z</time>
      </trkpt>
      <trkpt lat="43.43966" lon="5.86016">
        <ele>328.43</ele>
        <time>2019-02-10T08:36:13Z</time>
      </trkpt>
      <trkpt lat="43.43965" lon="5.86016">
        <ele>328.43</ele>
        <time>2019-02-10T08:36:14Z</time>
      </trkpt>
      <trkpt lat="43.43965" lon="5.86015">
        <ele>332.27</ele>
        <time>2019-02-10T08:36:18Z</time>
      </trkpt>
      <trkpt lat="43.43966" lon="5.86013">
        <ele>336.12</ele>
        <time>2019-02-10T08:36:22Z</time>
      </trkpt>
      <trkpt lat="43.43965" lon="5.86012">
        <ele>339.48</ele>
        <time>2019-02-10T08:36:26Z</time>
      </trkpt>
      <trkpt lat="43.43965" lon="5.86012">
        <ele>342.85</ele>
        <time>2019-02-10T08:36:30Z</time>
      </trkpt>
      <trkpt lat="43.43963" lon="5.86017">
        <ele>346.21</ele>
        <time>2019-02-10T08:36:34Z</time>
      </trkpt>
      <trkpt lat="43.43962" lon="5.86022">
        <ele>349.58</ele>
        <time>2019-02-10T08:36:39Z</time>
      </trkpt>
      <trkpt lat="43.4396" lon="5.86024">
        <ele>352.94</ele>
        <time>2019-02-10T08:36:48Z</time>
      </trkpt>
      <trkpt lat="43.4396" lon="5.86023">
        <ele>355.83</ele>
        <time>2019-02-10T08:36:59Z</time>
      </trkpt>
      <trkpt lat="43.43961" lon="5.86021">
        <ele>358.71</ele>
        <time>2019-02-10T08:37:23Z</time>
      </trkpt>
      <trkpt lat="43.4396" lon="5.86024">
        <ele>359.67</ele>
        <time>2019-02-10T08:37:46Z</time>
      </trkpt>
      <trkpt lat="43.4396" lon="5.86027">
        <ele>359.67</ele>
        <time>2019-02-10T08:38:08Z</time>
      </trkpt>
      <trkpt lat="43.43959" lon="5.86025">
        <ele>359.67</ele>
        <time>2019-02-10T08:38:41Z</time>
      </trkpt>
      <trkpt lat="43.4396" lon="5.86023">
        <ele>359.67</ele>
        <time>2019-02-10T08:39:22Z</time>
      </trkpt>
      <trkpt lat="43.4396" lon="5.86022">
        <ele>359.67</ele>
        <time>2019-02-10T08:39:57Z</time>
      </trkpt>
      <trkpt lat="43.43957" lon="5.86028">
        <ele>359.67</ele>
        <time>2019-02-10T08:40:27Z</time>
      </trkpt>
      <trkpt lat="43.43958" lon="5.86028">
        <ele>359.67</ele>
        <time>2019-02-10T08:40:59Z</time>
      </trkpt>
      <trkpt lat="43.43961" lon="5.86025">
        <ele>360.15</ele>
        <time>2019-02-10T08:41:34Z</time>
      </trkpt>
      <trkpt lat="43.43959" lon="5.86027">
        <ele>359.67</ele>
        <time>2019-02-10T08:41:57Z</time>
      </trkpt>
      <trkpt lat="43.43961" lon="5.86027">
        <ele>359.67</ele>
        <time>2019-02-10T08:42:33Z</time>
      </trkpt>
      <trkpt lat="43.43959" lon="5.8603">
        <ele>360.15</ele>
        <time>2019-02-10T08:43:14Z</time>
      </trkpt>
      <trkpt lat="43.43957" lon="5.86032">
        <ele>359.67</ele>
        <time>2019-02-10T08:43:55Z</time>
      </trkpt>
      <trkpt lat="43.43959" lon="5.86028">
        <ele>360.15</ele>
        <time>2019-02-10T08:44:24Z</time>
      </trkpt>
      <trkpt lat="43.43958" lon="5.86025">
        <ele>359.67</ele>
        <time>2019-02-10T08:45:02Z</time>
      </trkpt>
      <trkpt lat="43.43957" lon="5.86027">
        <ele>359.67</ele>
        <time>2019-02-10T08:45:35Z</time>
      </trkpt>
      <trkpt lat="43.43954" lon="5.8603">
        <ele>359.67</ele>
        <time>2019-02-10T08:46:11Z</time>
      </trkpt>
      <trkpt lat="43.43951" lon="5.86031">
        <ele>359.19</ele>
        <time>2019-02-10T08:46:48Z</time>
      </trkpt>
      <trkpt lat="43.43948" lon="5.86035">
        <ele>359.19</ele>
        <time>2019-02-10T08:47:21Z</time>
      </trkpt>
      <trkpt lat="43.43948" lon="5.86037">
        <ele>359.19</ele>
        <time>2019-02-10T08:48:03Z</time>
      </trkpt>
      <trkpt lat="43.43955" lon="5.86024">
        <ele>359.19</ele>
        <time>2019-02-10T08:48:37Z</time>
      </trkpt>
      <trkpt lat="43.43956" lon="5.86026">
        <ele>359.19</ele>
        <time>2019-02-10T08:49:07Z</time>
      </trkpt>
      <trkpt lat="43.4395" lon="5.86038">
        <ele>359.19</ele>
        <time>2019-02-10T08:49:44Z</time>
      </trkpt>
      <trkpt lat="43.4395" lon="5.86037">
        <ele>359.19</ele>
        <time>2019-02-10T08:50:14Z</time>
      </trkpt>
      <trkpt lat="43.4395" lon="5.86033">
        <ele>359.19</ele>
        <time>2019-02-10T08:50:50Z</time>
      </trkpt>
      <trkpt lat="43.43954" lon="5.86033">
        <ele>359.19</ele>
        <time>2019-02-10T08:51:27Z</time>
      </trkpt>
      <trkpt lat="43.43955" lon="5.86034">
        <ele>359.19</ele>
        <time>2019-02-10T08:52:06Z</time>
      </trkpt>
      <trkpt lat="43.43956" lon="5.86034">
        <ele>359.19</ele>
        <time>2019-02-10T08:52:38Z</time>
      </trkpt>
      <trkpt lat="43.4396" lon="5.86033">
        <ele>357.27</ele>
        <time>2019-02-10T08:53:00Z</time>
      </trkpt>
      <trkpt lat="43.43962" lon="5.86037">
        <ele>358.23</ele>
        <time>2019-02-10T08:53:17Z</time>
      </trkpt>
      <trkpt lat="43.43967" lon="5.86034">
        <ele>358.23</ele>
        <time>2019-02-10T08:53:40Z</time>
      </trkpt>
      <trkpt lat="43.43964" lon="5.86036">
        <ele>357.75</ele>
        <time>2019-02-10T08:54:17Z</time>
      </trkpt>
      <trkpt lat="43.43969" lon="5.86034">
        <ele>357.75</ele>
        <time>2019-02-10T08:54:50Z</time>
      </trkpt>
      <trkpt lat="43.43978" lon="5.8603">
        <ele>358.23</ele>
        <time>2019-02-10T08:55:17Z</time>
      </trkpt>
      <trkpt lat="43.43982" lon="5.86035">
        <ele>357.27</ele>
        <time>2019-02-10T08:55:54Z</time>
      </trkpt>
      <trkpt lat="43.43979" lon="5.86034">
        <ele>357.27</ele>
        <time>2019-02-10T08:56:31Z</time>
      </trkpt>
      <trkpt lat="43.43979" lon="5.86035">
        <ele>357.27</ele>
        <time>2019-02-10T08:57:07Z</time>
      </trkpt>
      <trkpt lat="43.43982" lon="5.86037">
        <ele>357.27</ele>
        <time>2019-02-10T08:57:44Z</time>
      </trkpt>
      <trkpt lat="43.43983" lon="5.86042">
        <ele>357.27</ele>
        <time>2019-02-10T08:58:18Z</time>
      </trkpt>
      <trkpt lat="43.43984" lon="5.86041">
        <ele>357.27</ele>
        <time>2019-02-10T08:58:55Z</time>
      </trkpt>
      <trkpt lat="43.43984" lon="5.86046">
        <ele>357.27</ele>
        <time>2019-02-10T08:59:32Z</time>
      </trkpt>
      <trkpt lat="43.43981" lon="5.86042">
        <ele>357.75</ele>
        <time>2019-02-10T09:00:08Z</time>
      </trkpt>
      <trkpt lat="43.43975" lon="5.86039">
        <ele>357.75</ele>
        <time>2019-02-10T09:00:34Z</time>
      </trkpt>
      <trkpt lat="43.43978" lon="5.86038">
        <ele>357.75</ele>
        <time>2019-02-10T09:00:36Z</time>
      </trkpt>
      <trkpt lat="43.4398" lon="5.86036">
        <ele>357.75</ele>
        <time>2019-02-10T09:00:37Z</time>
      </trkpt>
      <trkpt lat="43.43981" lon="5.86034">
        <ele>357.75</ele>
        <time>2019-02-10T09:00:38Z</time>
      </trkpt>
      <trkpt lat="43.43982" lon="5.86032">
        <ele>357.75</ele>
        <time>2019-02-10T09:00:39Z</time>
      </trkpt>
      <trkpt lat="43.43984" lon="5.8603">
        <ele>357.75</ele>
        <time>2019-02-10T09:00:40Z</time>
      </trkpt>
      <trkpt lat="43.43989" lon="5.86033">
        <ele>357.27</ele>
        <time>2019-02-10T09:00:43Z</time>
      </trkpt>
      <trkpt lat="43.4401" lon="5.86054">
        <ele>355.83</ele>
        <time>2019-02-10T09:00:49Z</time>
      </trkpt>
      <trkpt lat="43.44014" lon="5.86059">
        <ele>355.34</ele>
        <time>2019-02-10T09:00:50Z</time>
      </trkpt>
      <trkpt lat="43.44023" lon="5.8607">
        <ele>354.86</ele>
        <time>2019-02-10T09:00:52Z</time>
      </trkpt>
      <trkpt lat="43.44025" lon="5.86076">
        <ele>354.86</ele>
        <time>2019-02-10T09:00:53Z</time>
      </trkpt>
      <trkpt lat="43.44027" lon="5.86084">
        <ele>354.86</ele>
        <time>2019-02-10T09:00:54Z</time>
      </trkpt>
      <trkpt lat="43.44027" lon="5.86091">
        <ele>354.86</ele>
        <time>2019-02-10T09:00:55Z</time>
      </trkpt>
      <trkpt lat="43.44026" lon="5.86099">
        <ele>354.86</ele>
        <time>2019-02-10T09:00:56Z</time>
      </trkpt>
      <trkpt lat="43.44025" lon="5.86132">
        <ele>353.42</ele>
        <time>2019-02-10T09:01:04Z</time>
      </trkpt>
      <trkpt lat="43.44027" lon="5.86136">
        <ele>352.94</ele>
        <time>2019-02-10T09:01:22Z</time>
      </trkpt>
      <trkpt lat="43.44027" lon="5.86145">
        <ele>352.94</ele>
        <time>2019-02-10T09:01:53Z</time>
      </trkpt>
      <trkpt lat="43.44029" lon="5.862">
        <ele>352.46</ele>
        <time>2019-02-10T09:02:05Z</time>
      </trkpt>
      <trkpt lat="43.44033" lon="5.86243">
        <ele>349.58</ele>
        <time>2019-02-10T09:02:11Z</time>
      </trkpt>
      <trkpt lat="43.44037" lon="5.86268">
        <ele>347.17</ele>
        <time>2019-02-10T09:02:15Z</time>
      </trkpt>
      <trkpt lat="43.44034" lon="5.86289">
        <ele>345.25</ele>
        <time>2019-02-10T09:02:20Z</time>
      </trkpt>
      <trkpt lat="43.44031" lon="5.86292">
        <ele>345.73</ele>
        <time>2019-02-10T09:02:21Z</time>
      </trkpt>
      <trkpt lat="43.43991" lon="5.86295">
        <ele>346.69</ele>
        <time>2019-02-10T09:02:34Z</time>
      </trkpt>
      <trkpt lat="43.43923" lon="5.86301">
        <ele>347.17</ele>
        <time>2019-02-10T09:02:49Z</time>
      </trkpt>
      <trkpt lat="43.43873" lon="5.86312">
        <ele>347.17</ele>
        <time>2019-02-10T09:03:01Z</time>
      </trkpt>
      <trkpt lat="43.43797" lon="5.86328">
        <ele>347.17</ele>
        <time>2019-02-10T09:03:18Z</time>
      </trkpt>
      <trkpt lat="43.43733" lon="5.86328">
        <ele>343.81</ele>
        <time>2019-02-10T09:03:29Z</time>
      </trkpt>
      <trkpt lat="43.43655" lon="5.86324">
        <ele>343.33</ele>
        <time>2019-02-10T09:03:43Z</time>
      </trkpt>
      <trkpt lat="43.43588" lon="5.86336">
        <ele>343.33</ele>
        <time>2019-02-10T09:03:58Z</time>
      </trkpt>
      <trkpt lat="43.4357" lon="5.8634">
        <ele>346.69</ele>
        <time>2019-02-10T09:04:03Z</time>
      </trkpt>
      <trkpt lat="43.43532" lon="5.86351">
        <ele>350.54</ele>
        <time>2019-02-10T09:04:17Z</time>
      </trkpt>
      <trkpt lat="43.43489" lon="5.86375">
        <ele>351.5</ele>
        <time>2019-02-10T09:04:31Z</time>
      </trkpt>
      <trkpt lat="43.43421" lon="5.86419">
        <ele>351.98</ele>
        <time>2019-02-10T09:04:49Z</time>
      </trkpt>
      <trkpt lat="43.43353" lon="5.86443">
        <ele>351.02</ele>
        <time>2019-02-10T09:05:03Z</time>
      </trkpt>
      <trkpt lat="43.43288" lon="5.86457">
        <ele>352.46</ele>
        <time>2019-02-10T09:05:17Z</time>
      </trkpt>
      <trkpt lat="43.43275" lon="5.86465">
        <ele>352.46</ele>
        <time>2019-02-10T09:05:20Z</time>
      </trkpt>
      <trkpt lat="43.4321" lon="5.86508">
        <ele>352.46</ele>
        <time>2019-02-10T09:05:34Z</time>
      </trkpt>
      <trkpt lat="43.43145" lon="5.86544">
        <ele>351.5</ele>
        <time>2019-02-10T09:05:48Z</time>
      </trkpt>
      <trkpt lat="43.43066" lon="5.86552">
        <ele>351.02</ele>
        <time>2019-02-10T09:06:04Z</time>
      </trkpt>
      <trkpt lat="43.43062" lon="5.8655">
        <ele>351.02</ele>
        <time>2019-02-10T09:06:05Z</time>
      </trkpt>
      <trkpt lat="43.43003" lon="5.86554">
        <ele>347.65</ele>
        <time>2019-02-10T09:06:15Z</time>
      </trkpt>
      <trkpt lat="43.42987" lon="5.86555">
        <ele>346.69</ele>
        <time>2019-02-10T09:06:17Z</time>
      </trkpt>
      <trkpt lat="43.42979" lon="5.86554">
        <ele>346.69</ele>
        <time>2019-02-10T09:06:18Z</time>
      </trkpt>
      <trkpt lat="43.42971" lon="5.86552">
        <ele>345.73</ele>
        <time>2019-02-10T09:06:19Z</time>
      </trkpt>
      <trkpt lat="43.42883" lon="5.86512">
        <ele>343.33</ele>
        <time>2019-02-10T09:06:32Z</time>
      </trkpt>
      <trkpt lat="43.42853" lon="5.86493">
        <ele>342.85</ele>
        <time>2019-02-10T09:06:37Z</time>
      </trkpt>
      <trkpt lat="43.42847" lon="5.86492">
        <ele>342.85</ele>
        <time>2019-02-10T09:06:38Z</time>
      </trkpt>
      <trkpt lat="43.4284" lon="5.86491">
        <ele>342.37</ele>
        <time>2019-02-10T09:06:39Z</time>
      </trkpt>
      <trkpt lat="43.42834" lon="5.86491">
        <ele>342.37</ele>
        <time>2019-02-10T09:06:40Z</time>
      </trkpt>
      <trkpt lat="43.42828" lon="5.86493">
        <ele>342.37</ele>
        <time>2019-02-10T09:06:41Z</time>
      </trkpt>
      <trkpt lat="43.42821" lon="5.86494">
        <ele>342.37</ele>
        <time>2019-02-10T09:06:42Z</time>
      </trkpt>
      <trkpt lat="43.42775" lon="5.86511">
        <ele>342.37</ele>
        <time>2019-02-10T09:06:50Z</time>
      </trkpt>
      <trkpt lat="43.42706" lon="5.86528">
        <ele>342.85</ele>
        <time>2019-02-10T09:07:05Z</time>
      </trkpt>
      <trkpt lat="43.42619" lon="5.86541">
        <ele>339.96</ele>
        <time>2019-02-10T09:07:19Z</time>
      </trkpt>
      <trkpt lat="43.42612" lon="5.86542">
        <ele>339.96</ele>
        <time>2019-02-10T09:07:20Z</time>
      </trkpt>
      <trkpt lat="43.42557" lon="5.86555">
        <ele>336.6</ele>
        <time>2019-02-10T09:07:27Z</time>
      </trkpt>
      <trkpt lat="43.42501" lon="5.86567">
        <ele>333.71</ele>
        <time>2019-02-10T09:07:34Z</time>
      </trkpt>
      <trkpt lat="43.42478" lon="5.86573">
        <ele>332.75</ele>
        <time>2019-02-10T09:07:37Z</time>
      </trkpt>
      <trkpt lat="43.4247" lon="5.86579">
        <ele>332.27</ele>
        <time>2019-02-10T09:07:38Z</time>
      </trkpt>
      <trkpt lat="43.42465" lon="5.86585">
        <ele>331.79</ele>
        <time>2019-02-10T09:07:39Z</time>
      </trkpt>
      <trkpt lat="43.4246" lon="5.86594">
        <ele>331.79</ele>
        <time>2019-02-10T09:07:40Z</time>
      </trkpt>
      <trkpt lat="43.42455" lon="5.86603">
        <ele>331.31</ele>
        <time>2019-02-10T09:07:41Z</time>
      </trkpt>
      <trkpt lat="43.42411" lon="5.86696">
        <ele>328.43</ele>
        <time>2019-02-10T09:07:52Z</time>
      </trkpt>
      <trkpt lat="43.42378" lon="5.86759">
        <ele>325.06</ele>
        <time>2019-02-10T09:08:00Z</time>
      </trkpt>
      <trkpt lat="43.42365" lon="5.86772">
        <ele>324.58</ele>
        <time>2019-02-10T09:08:02Z</time>
      </trkpt>
      <trkpt lat="43.42322" lon="5.86811">
        <ele>320.74</ele>
        <time>2019-02-10T09:08:08Z</time>
      </trkpt>
      <trkpt lat="43.42302" lon="5.86827">
        <ele>317.37</ele>
        <time>2019-02-10T09:08:12Z</time>
      </trkpt>
      <trkpt lat="43.423" lon="5.86828">
        <ele>317.37</ele>
        <time>2019-02-10T09:08:13Z</time>
      </trkpt>
      <trkpt lat="43.42299" lon="5.86829">
        <ele>317.37</ele>
        <time>2019-02-10T09:08:14Z</time>
      </trkpt>
      <trkpt lat="43.42298" lon="5.86828">
        <ele>316.89</ele>
        <time>2019-02-10T09:08:15Z</time>
      </trkpt>
      <trkpt lat="43.42279" lon="5.86827">
        <ele>316.89</ele>
        <time>2019-02-10T09:08:28Z</time>
      </trkpt>
      <trkpt lat="43.42255" lon="5.86841">
        <ele>316.41</ele>
        <time>2019-02-10T09:08:41Z</time>
      </trkpt>
      <trkpt lat="43.42238" lon="5.86841">
        <ele>316.41</ele>
        <time>2019-02-10T09:08:48Z</time>
      </trkpt>
      <trkpt lat="43.42229" lon="5.86834">
        <ele>317.37</ele>
        <time>2019-02-10T09:08:53Z</time>
      </trkpt>
      <trkpt lat="43.42225" lon="5.8683">
        <ele>317.85</ele>
        <time>2019-02-10T09:08:55Z</time>
      </trkpt>
      <trkpt lat="43.42204" lon="5.86811">
        <ele>320.26</ele>
        <time>2019-02-10T09:09:07Z</time>
      </trkpt>
      <trkpt lat="43.42173" lon="5.86814">
        <ele>322.18</ele>
        <time>2019-02-10T09:09:24Z</time>
      </trkpt>
      <trkpt lat="43.42142" lon="5.86816">
        <ele>323.62</ele>
        <time>2019-02-10T09:09:40Z</time>
      </trkpt>
      <trkpt lat="43.4213" lon="5.86816">
        <ele>322.18</ele>
        <time>2019-02-10T09:09:47Z</time>
      </trkpt>
      <trkpt lat="43.4212" lon="5.86812">
        <ele>321.7</ele>
        <time>2019-02-10T09:10:01Z</time>
      </trkpt>
      <trkpt lat="43.42118" lon="5.86815">
        <ele>321.7</ele>
        <time>2019-02-10T09:10:10Z</time>
      </trkpt>
      <trkpt lat="43.42111" lon="5.8681">
        <ele>317.85</ele>
        <time>2019-02-10T09:10:21Z</time>
      </trkpt>
      <trkpt lat="43.42098" lon="5.86818">
        <ele>314.97</ele>
        <time>2019-02-10T09:10:31Z</time>
      </trkpt>
      <trkpt lat="43.42095" lon="5.86818">
        <ele>314.97</ele>
        <time>2019-02-10T09:10:34Z</time>
      </trkpt>
      <trkpt lat="43.42085" lon="5.86811">
        <ele>315.45</ele>
        <time>2019-02-10T09:10:48Z</time>
      </trkpt>
      <trkpt lat="43.42084" lon="5.86811">
        <ele>315.45</ele>
        <time>2019-02-10T09:10:50Z</time>
      </trkpt>
      <trkpt lat="43.42079" lon="5.86815">
        <ele>314.97</ele>
        <time>2019-02-10T09:10:55Z</time>
      </trkpt>
      <trkpt lat="43.42078" lon="5.86817">
        <ele>314.49</ele>
        <time>2019-02-10T09:10:57Z</time>
      </trkpt>
      <trkpt lat="43.42078" lon="5.86819">
        <ele>314.49</ele>
        <time>2019-02-10T09:11:00Z</time>
      </trkpt>
      <trkpt lat="43.4207" lon="5.86825">
        <ele>312.57</ele>
        <time>2019-02-10T09:11:06Z</time>
      </trkpt>
      <trkpt lat="43.42069" lon="5.86824">
        <ele>312.57</ele>
        <time>2019-02-10T09:11:07Z</time>
      </trkpt>
      <trkpt lat="43.42068" lon="5.86822">
        <ele>312.57</ele>
        <time>2019-02-10T09:11:08Z</time>
      </trkpt>
      <trkpt lat="43.42067" lon="5.8682">
        <ele>312.57</ele>
        <time>2019-02-10T09:11:09Z</time>
      </trkpt>
      <trkpt lat="43.42057" lon="5.86799">
        <ele>312.57</ele>
        <time>2019-02-10T09:11:20Z</time>
      </trkpt>
      <trkpt lat="43.42052" lon="5.86789">
        <ele>312.57</ele>
        <time>2019-02-10T09:11:25Z</time>
      </trkpt>
      <trkpt lat="43.42051" lon="5.86787">
        <ele>312.57</ele>
        <time>2019-02-10T09:11:26Z</time>
      </trkpt>
      <trkpt lat="43.42044" lon="5.86777">
        <ele>312.57</ele>
        <time>2019-02-10T09:11:37Z</time>
      </trkpt>
      <trkpt lat="43.42007" lon="5.8675">
        <ele>313.05</ele>
        <time>2019-02-10T09:11:50Z</time>
      </trkpt>
      <trkpt lat="43.41983" lon="5.86714">
        <ele>313.05</ele>
        <time>2019-02-10T09:12:03Z</time>
      </trkpt>
      <trkpt lat="43.41971" lon="5.86696">
        <ele>314.49</ele>
        <time>2019-02-10T09:12:09Z</time>
      </trkpt>
      <trkpt lat="43.41952" lon="5.86658">
        <ele>315.93</ele>
        <time>2019-02-10T09:12:22Z</time>
      </trkpt>
      <trkpt lat="43.41947" lon="5.86648">
        <ele>315.93</ele>
        <time>2019-02-10T09:12:25Z</time>
      </trkpt>
      <trkpt lat="43.41947" lon="5.86645">
        <ele>315.93</ele>
        <time>2019-02-10T09:12:26Z</time>
      </trkpt>
      <trkpt lat="43.41947" lon="5.86642">
        <ele>315.93</ele>
        <time>2019-02-10T09:12:27Z</time>
      </trkpt>
      <trkpt lat="43.41947" lon="5.86639">
        <ele>315.93</ele>
        <time>2019-02-10T09:12:28Z</time>
      </trkpt>
      <trkpt lat="43.41948" lon="5.86636">
        <ele>316.41</ele>
        <time>2019-02-10T09:12:29Z</time>
      </trkpt>
      <trkpt lat="43.41948" lon="5.86633">
        <ele>316.41</ele>
        <time>2019-02-10T09:12:30Z</time>
      </trkpt>
      <trkpt lat="43.41944" lon="5.86592">
        <ele>316.89</ele>
        <time>2019-02-10T09:12:44Z</time>
      </trkpt>
      <trkpt lat="43.41952" lon="5.86556">
        <ele>316.89</ele>
        <time>2019-02-10T09:12:56Z</time>
      </trkpt>
      <trkpt lat="43.41981" lon="5.86518">
        <ele>317.37</ele>
        <time>2019-02-10T09:13:11Z</time>
      </trkpt>
      <trkpt lat="43.42005" lon="5.8649">
        <ele>317.85</ele>
        <time>2019-02-10T09:13:24Z</time>
      </trkpt>
      <trkpt lat="43.42023" lon="5.86469">
        <ele>317.85</ele>
        <time>2019-02-10T09:13:36Z</time>
      </trkpt>
      <trkpt lat="43.42034" lon="5.86456">
        <ele>318.33</ele>
        <time>2019-02-10T09:13:48Z</time>
      </trkpt>
      <trkpt lat="43.4204" lon="5.86447">
        <ele>318.33</ele>
        <time>2019-02-10T09:14:02Z</time>
      </trkpt>
      <trkpt lat="43.42044" lon="5.86436">
        <ele>318.33</ele>
        <time>2019-02-10T09:14:17Z</time>
      </trkpt>
      <trkpt lat="43.42047" lon="5.86427">
        <ele>318.33</ele>
        <time>2019-02-10T09:14:29Z</time>
      </trkpt>
      <trkpt lat="43.42052" lon="5.86417">
        <ele>318.81</ele>
        <time>2019-02-10T09:14:44Z</time>
      </trkpt>
      <trkpt lat="43.42056" lon="5.86411">
        <ele>319.3</ele>
        <time>2019-02-10T09:14:59Z</time>
      </trkpt>
      <trkpt lat="43.42058" lon="5.86405">
        <ele>319.78</ele>
        <time>2019-02-10T09:15:14Z</time>
      </trkpt>
      <trkpt lat="43.42064" lon="5.86396">
        <ele>320.26</ele>
        <time>2019-02-10T09:15:29Z</time>
      </trkpt>
      <trkpt lat="43.4207" lon="5.86387">
        <ele>320.26</ele>
        <time>2019-02-10T09:15:42Z</time>
      </trkpt>
      <trkpt lat="43.42073" lon="5.86386">
        <ele>320.26</ele>
        <time>2019-02-10T09:15:59Z</time>
      </trkpt>
      <trkpt lat="43.42077" lon="5.86383">
        <ele>321.22</ele>
        <time>2019-02-10T09:16:11Z</time>
      </trkpt>
      <trkpt lat="43.42075" lon="5.86385">
        <ele>321.22</ele>
        <time>2019-02-10T09:16:23Z</time>
      </trkpt>
      <trkpt lat="43.42071" lon="5.86391">
        <ele>320.74</ele>
        <time>2019-02-10T09:16:34Z</time>
      </trkpt>
      <trkpt lat="43.42067" lon="5.86399">
        <ele>319.78</ele>
        <time>2019-02-10T09:16:44Z</time>
      </trkpt>
      <trkpt lat="43.42058" lon="5.86408">
        <ele>319.3</ele>
        <time>2019-02-10T09:16:56Z</time>
      </trkpt>
      <trkpt lat="43.42054" lon="5.86417">
        <ele>319.3</ele>
        <time>2019-02-10T09:17:07Z</time>
      </trkpt>
      <trkpt lat="43.4205" lon="5.86425">
        <ele>318.81</ele>
        <time>2019-02-10T09:17:20Z</time>
      </trkpt>
      <trkpt lat="43.42044" lon="5.86433">
        <ele>318.81</ele>
        <time>2019-02-10T09:17:26Z</time>
      </trkpt>
      <trkpt lat="43.42042" lon="5.86438">
        <ele>318.81</ele>
        <time>2019-02-10T09:17:29Z</time>
      </trkpt>
      <trkpt lat="43.42024" lon="5.86461">
        <ele>318.81</ele>
        <time>2019-02-10T09:17:40Z</time>
      </trkpt>
      <trkpt lat="43.42018" lon="5.86468">
        <ele>318.33</ele>
        <time>2019-02-10T09:17:44Z</time>
      </trkpt>
      <trkpt lat="43.41999" lon="5.86489">
        <ele>318.33</ele>
        <time>2019-02-10T09:17:55Z</time>
      </trkpt>
      <trkpt lat="43.41985" lon="5.86501">
        <ele>318.33</ele>
        <time>2019-02-10T09:18:09Z</time>
      </trkpt>
      <trkpt lat="43.41985" lon="5.86502">
        <ele>317.85</ele>
        <time>2019-02-10T09:18:17Z</time>
      </trkpt>
      <trkpt lat="43.41984" lon="5.86501">
        <ele>317.85</ele>
        <time>2019-02-10T09:18:18Z</time>
      </trkpt>
      <trkpt lat="43.41984" lon="5.86499">
        <ele>317.85</ele>
        <time>2019-02-10T09:18:34Z</time>
      </trkpt>
      <trkpt lat="43.41985" lon="5.86504">
        <ele>317.85</ele>
        <time>2019-02-10T09:18:46Z</time>
      </trkpt>
      <trkpt lat="43.41983" lon="5.86507">
        <ele>317.37</ele>
        <time>2019-02-10T09:19:09Z</time>
      </trkpt>
      <trkpt lat="43.41983" lon="5.86501">
        <ele>317.37</ele>
        <time>2019-02-10T09:19:38Z</time>
      </trkpt>
      <trkpt lat="43.41982" lon="5.86504">
        <ele>317.37</ele>
        <time>2019-02-10T09:19:41Z</time>
      </trkpt>
      <trkpt lat="43.41981" lon="5.86506">
        <ele>317.37</ele>
        <time>2019-02-10T09:19:42Z</time>
      </trkpt>
      <trkpt lat="43.41981" lon="5.86507">
        <ele>317.37</ele>
        <time>2019-02-10T09:19:43Z</time>
      </trkpt>
      <trkpt lat="43.4198" lon="5.86509">
        <ele>317.37</ele>
        <time>2019-02-10T09:19:44Z</time>
      </trkpt>
      <trkpt lat="43.41978" lon="5.86511">
        <ele>317.37</ele>
        <time>2019-02-10T09:19:45Z</time>
      </trkpt>
      <trkpt lat="43.41977" lon="5.86513">
        <ele>317.37</ele>
        <time>2019-02-10T09:19:46Z</time>
      </trkpt>
      <trkpt lat="43.41976" lon="5.86515">
        <ele>317.37</ele>
        <time>2019-02-10T09:19:47Z</time>
      </trkpt>
      <trkpt lat="43.41974" lon="5.86517">
        <ele>317.37</ele>
        <time>2019-02-10T09:19:48Z</time>
      </trkpt>
      <trkpt lat="43.41972" lon="5.86519">
        <ele>317.37</ele>
        <time>2019-02-10T09:19:49Z</time>
      </trkpt>
      <trkpt lat="43.4197" lon="5.86521">
        <ele>316.89</ele>
        <time>2019-02-10T09:19:50Z</time>
      </trkpt>
      <trkpt lat="43.41969" lon="5.86523">
        <ele>316.89</ele>
        <time>2019-02-10T09:19:51Z</time>
      </trkpt>
      <trkpt lat="43.41951" lon="5.86557">
        <ele>316.89</ele>
        <time>2019-02-10T09:20:02Z</time>
      </trkpt>
      <trkpt lat="43.41948" lon="5.86565">
        <ele>316.89</ele>
        <time>2019-02-10T09:20:04Z</time>
      </trkpt>
      <trkpt lat="43.41949" lon="5.86568">
        <ele>316.89</ele>
        <time>2019-02-10T09:20:05Z</time>
      </trkpt>
      <trkpt lat="43.41949" lon="5.86572">
        <ele>316.89</ele>
        <time>2019-02-10T09:20:06Z</time>
      </trkpt>
      <trkpt lat="43.41949" lon="5.86576">
        <ele>316.89</ele>
        <time>2019-02-10T09:20:07Z</time>
      </trkpt>
      <trkpt lat="43.41949" lon="5.8658">
        <ele>316.89</ele>
        <time>2019-02-10T09:20:08Z</time>
      </trkpt>
      <trkpt lat="43.4195" lon="5.86583">
        <ele>316.89</ele>
        <time>2019-02-10T09:20:09Z</time>
      </trkpt>
      <trkpt lat="43.41951" lon="5.86587">
        <ele>316.89</ele>
        <time>2019-02-10T09:20:10Z</time>
      </trkpt>
      <trkpt lat="43.41951" lon="5.86591">
        <ele>316.89</ele>
        <time>2019-02-10T09:20:11Z</time>
      </trkpt>
      <trkpt lat="43.41951" lon="5.86594">
        <ele>316.89</ele>
        <time>2019-02-10T09:20:12Z</time>
      </trkpt>
      <trkpt lat="43.4195" lon="5.86598">
        <ele>316.89</ele>
        <time>2019-02-10T09:20:13Z</time>
      </trkpt>
      <trkpt lat="43.41949" lon="5.86602">
        <ele>316.89</ele>
        <time>2019-02-10T09:20:14Z</time>
      </trkpt>
      <trkpt lat="43.41949" lon="5.86606">
        <ele>316.89</ele>
        <time>2019-02-10T09:20:15Z</time>
      </trkpt>
      <trkpt lat="43.41949" lon="5.86609">
        <ele>316.89</ele>
        <time>2019-02-10T09:20:16Z</time>
      </trkpt>
      <trkpt lat="43.41958" lon="5.86659">
        <ele>316.41</ele>
        <time>2019-02-10T09:20:30Z</time>
      </trkpt>
      <trkpt lat="43.41975" lon="5.86705">
        <ele>315.45</ele>
        <time>2019-02-10T09:20:42Z</time>
      </trkpt>
      <trkpt lat="43.41981" lon="5.86719">
        <ele>315.45</ele>
        <time>2019-02-10T09:20:47Z</time>
      </trkpt>
      <trkpt lat="43.41979" lon="5.86722">
        <ele>315.45</ele>
        <time>2019-02-10T09:20:49Z</time>
      </trkpt>
      <trkpt lat="43.41976" lon="5.86727">
        <ele>315.45</ele>
        <time>2019-02-10T09:20:52Z</time>
      </trkpt>
      <trkpt lat="43.41958" lon="5.8676">
        <ele>314.49</ele>
        <time>2019-02-10T09:21:05Z</time>
      </trkpt>
      <trkpt lat="43.4196" lon="5.86779">
        <ele>314.49</ele>
        <time>2019-02-10T09:21:14Z</time>
      </trkpt>
      <trkpt lat="43.41957" lon="5.86784">
        <ele>314.01</ele>
        <time>2019-02-10T09:21:54Z</time>
      </trkpt>
      <trkpt lat="43.41959" lon="5.86781">
        <ele>314.01</ele>
        <time>2019-02-10T09:22:07Z</time>
      </trkpt>
      <trkpt lat="43.41978" lon="5.86757">
        <ele>314.01</ele>
        <time>2019-02-10T09:22:19Z</time>
      </trkpt>
      <trkpt lat="43.41982" lon="5.86744">
        <ele>314.97</ele>
        <time>2019-02-10T09:22:23Z</time>
      </trkpt>
      <trkpt lat="43.41986" lon="5.86741">
        <ele>314.97</ele>
        <time>2019-02-10T09:22:25Z</time>
      </trkpt>
      <trkpt lat="43.41989" lon="5.86741">
        <ele>314.97</ele>
        <time>2019-02-10T09:22:26Z</time>
      </trkpt>
      <trkpt lat="43.4199" lon="5.86742">
        <ele>314.97</ele>
        <time>2019-02-10T09:22:27Z</time>
      </trkpt>
      <trkpt lat="43.41992" lon="5.86744">
        <ele>314.97</ele>
        <time>2019-02-10T09:22:28Z</time>
      </trkpt>
      <trkpt lat="43.42012" lon="5.86753">
        <ele>315.45</ele>
        <time>2019-02-10T09:22:36Z</time>
      </trkpt>
      <trkpt lat="43.42014" lon="5.86755">
        <ele>315.45</ele>
        <time>2019-02-10T09:22:37Z</time>
      </trkpt>
      <trkpt lat="43.42017" lon="5.86757">
        <ele>315.45</ele>
        <time>2019-02-10T09:22:38Z</time>
      </trkpt>
      <trkpt lat="43.4204" lon="5.86782">
        <ele>315.45</ele>
        <time>2019-02-10T09:22:48Z</time>
      </trkpt>
      <trkpt lat="43.42051" lon="5.86803">
        <ele>315.45</ele>
        <time>2019-02-10T09:22:53Z</time>
      </trkpt>
      <trkpt lat="43.42071" lon="5.86849">
        <ele>315.45</ele>
        <time>2019-02-10T09:23:04Z</time>
      </trkpt>
      <trkpt lat="43.42091" lon="5.86882">
        <ele>314.01</ele>
        <time>2019-02-10T09:23:13Z</time>
      </trkpt>
      <trkpt lat="43.42112" lon="5.86899">
        <ele>314.01</ele>
        <time>2019-02-10T09:23:20Z</time>
      </trkpt>
      <trkpt lat="43.42115" lon="5.86901">
        <ele>314.01</ele>
        <time>2019-02-10T09:23:21Z</time>
      </trkpt>
      <trkpt lat="43.42154" lon="5.86902">
        <ele>316.41</ele>
        <time>2019-02-10T09:23:34Z</time>
      </trkpt>
      <trkpt lat="43.42196" lon="5.86902">
        <ele>315.93</ele>
        <time>2019-02-10T09:23:47Z</time>
      </trkpt>
      <trkpt lat="43.42213" lon="5.86907">
        <ele>315.93</ele>
        <time>2019-02-10T09:23:56Z</time>
      </trkpt>
      <trkpt lat="43.42213" lon="5.86909">
        <ele>315.93</ele>
        <time>2019-02-10T09:23:57Z</time>
      </trkpt>
      <trkpt lat="43.42213" lon="5.8691">
        <ele>315.93</ele>
        <time>2019-02-10T09:23:58Z</time>
      </trkpt>
      <trkpt lat="43.42195" lon="5.86934">
        <ele>316.41</ele>
        <time>2019-02-10T09:24:11Z</time>
      </trkpt>
      <trkpt lat="43.42183" lon="5.8695">
        <ele>314.97</ele>
        <time>2019-02-10T09:24:15Z</time>
      </trkpt>
      <trkpt lat="43.42139" lon="5.86998">
        <ele>314.49</ele>
        <time>2019-02-10T09:24:27Z</time>
      </trkpt>
      <trkpt lat="43.42135" lon="5.87002">
        <ele>314.49</ele>
        <time>2019-02-10T09:24:28Z</time>
      </trkpt>
      <trkpt lat="43.42099" lon="5.87021">
        <ele>314.49</ele>
        <time>2019-02-10T09:24:36Z</time>
      </trkpt>
      <trkpt lat="43.42094" lon="5.8702">
        <ele>314.49</ele>
        <time>2019-02-10T09:24:37Z</time>
      </trkpt>
      <trkpt lat="43.42089" lon="5.87018">
        <ele>314.49</ele>
        <time>2019-02-10T09:24:38Z</time>
      </trkpt>
      <trkpt lat="43.42085" lon="5.87014">
        <ele>314.49</ele>
        <time>2019-02-10T09:24:39Z</time>
      </trkpt>
      <trkpt lat="43.42082" lon="5.8701">
        <ele>314.49</ele>
        <time>2019-02-10T09:24:40Z</time>
      </trkpt>
      <trkpt lat="43.42079" lon="5.87005">
        <ele>314.49</ele>
        <time>2019-02-10T09:24:41Z</time>
      </trkpt>
      <trkpt lat="43.42041" lon="5.86936">
        <ele>314.49</ele>
        <time>2019-02-10T09:24:57Z</time>
      </trkpt>
      <trkpt lat="43.42024" lon="5.86903">
        <ele>315.45</ele>
        <time>2019-02-10T09:25:05Z</time>
      </trkpt>
      <trkpt lat="43.4198" lon="5.86862">
        <ele>315.93</ele>
        <time>2019-02-10T09:25:19Z</time>
      </trkpt>
      <trkpt lat="43.41979" lon="5.86859">
        <ele>315.93</ele>
        <time>2019-02-10T09:25:20Z</time>
      </trkpt>
      <trkpt lat="43.41976" lon="5.86856">
        <ele>315.93</ele>
        <time>2019-02-10T09:25:21Z</time>
      </trkpt>
      <trkpt lat="43.41971" lon="5.86842">
        <ele>315.93</ele>
        <time>2019-02-10T09:25:25Z</time>
      </trkpt>
      <trkpt lat="43.41968" lon="5.86839">
        <ele>315.93</ele>
        <time>2019-02-10T09:25:26Z</time>
      </trkpt>
      <trkpt lat="43.41944" lon="5.86798">
        <ele>315.93</ele>
        <time>2019-02-10T09:25:38Z</time>
      </trkpt>
      <trkpt lat="43.4193" lon="5.86757">
        <ele>316.89</ele>
        <time>2019-02-10T09:25:50Z</time>
      </trkpt>
      <trkpt lat="43.41928" lon="5.86739">
        <ele>317.37</ele>
        <time>2019-02-10T09:25:56Z</time>
      </trkpt>
      <trkpt lat="43.41928" lon="5.86736">
        <ele>317.37</ele>
        <time>2019-02-10T09:25:57Z</time>
      </trkpt>
      <trkpt lat="43.41928" lon="5.86733">
        <ele>317.37</ele>
        <time>2019-02-10T09:25:58Z</time>
      </trkpt>
      <trkpt lat="43.41928" lon="5.8673">
        <ele>317.37</ele>
        <time>2019-02-10T09:25:59Z</time>
      </trkpt>
      <trkpt lat="43.41928" lon="5.86727">
        <ele>317.37</ele>
        <time>2019-02-10T09:26:00Z</time>
      </trkpt>
      <trkpt lat="43.41925" lon="5.86711">
        <ele>317.37</ele>
        <time>2019-02-10T09:26:04Z</time>
      </trkpt>
      <trkpt lat="43.41926" lon="5.86709">
        <ele>317.37</ele>
        <time>2019-02-10T09:26:05Z</time>
      </trkpt>
      <trkpt lat="43.41926" lon="5.86705">
        <ele>317.37</ele>
        <time>2019-02-10T09:26:06Z</time>
      </trkpt>
      <trkpt lat="43.41921" lon="5.86658">
        <ele>317.37</ele>
        <time>2019-02-10T09:26:18Z</time>
      </trkpt>
      <trkpt lat="43.41918" lon="5.86627">
        <ele>317.37</ele>
        <time>2019-02-10T09:26:25Z</time>
      </trkpt>
      <trkpt lat="43.41917" lon="5.86623">
        <ele>317.37</ele>
        <time>2019-02-10T09:26:26Z</time>
      </trkpt>
      <trkpt lat="43.41916" lon="5.86601">
        <ele>317.37</ele>
        <time>2019-02-10T09:26:32Z</time>
      </trkpt>
      <trkpt lat="43.41916" lon="5.86599">
        <ele>317.37</ele>
        <time>2019-02-10T09:26:33Z</time>
      </trkpt>
      <trkpt lat="43.41908" lon="5.86565">
        <ele>319.3</ele>
        <time>2019-02-10T09:26:44Z</time>
      </trkpt>
      <trkpt lat="43.41896" lon="5.86548">
        <ele>321.7</ele>
        <time>2019-02-10T09:26:51Z</time>
      </trkpt>
      <trkpt lat="43.41894" lon="5.86546">
        <ele>322.18</ele>
        <time>2019-02-10T09:26:52Z</time>
      </trkpt>
      <trkpt lat="43.41884" lon="5.86533">
        <ele>324.1</ele>
        <time>2019-02-10T09:27:00Z</time>
      </trkpt>
      <trkpt lat="43.41879" lon="5.86527">
        <ele>325.06</ele>
        <time>2019-02-10T09:27:03Z</time>
      </trkpt>
      <trkpt lat="43.41871" lon="5.86517">
        <ele>325.54</ele>
        <time>2019-02-10T09:27:08Z</time>
      </trkpt>
      <trkpt lat="43.41863" lon="5.86505">
        <ele>326.5</ele>
        <time>2019-02-10T09:27:14Z</time>
      </trkpt>
      <trkpt lat="43.41844" lon="5.86474">
        <ele>326.5</ele>
        <time>2019-02-10T09:27:25Z</time>
      </trkpt>
      <trkpt lat="43.41835" lon="5.86467">
        <ele>326.5</ele>
        <time>2019-02-10T09:27:31Z</time>
      </trkpt>
      <trkpt lat="43.41823" lon="5.86461">
        <ele>326.99</ele>
        <time>2019-02-10T09:27:38Z</time>
      </trkpt>
      <trkpt lat="43.41794" lon="5.86465">
        <ele>326.99</ele>
        <time>2019-02-10T09:27:52Z</time>
      </trkpt>
      <trkpt lat="43.4179" lon="5.86466">
        <ele>324.58</ele>
        <time>2019-02-10T09:27:54Z</time>
      </trkpt>
      <trkpt lat="43.41749" lon="5.86483">
        <ele>322.66</ele>
        <time>2019-02-10T09:28:08Z</time>
      </trkpt>
      <trkpt lat="43.4173" lon="5.8649">
        <ele>324.1</ele>
        <time>2019-02-10T09:28:13Z</time>
      </trkpt>
      <trkpt lat="43.41705" lon="5.86494">
        <ele>326.5</ele>
        <time>2019-02-10T09:28:21Z</time>
      </trkpt>
      <trkpt lat="43.41697" lon="5.86497">
        <ele>327.95</ele>
        <time>2019-02-10T09:28:25Z</time>
      </trkpt>
      <trkpt lat="43.41696" lon="5.86498">
        <ele>327.95</ele>
        <time>2019-02-10T09:28:26Z</time>
      </trkpt>
      <trkpt lat="43.41683" lon="5.86498">
        <ele>328.43</ele>
        <time>2019-02-10T09:28:44Z</time>
      </trkpt>
      <trkpt lat="43.41659" lon="5.86492">
        <ele>328.91</ele>
        <time>2019-02-10T09:28:57Z</time>
      </trkpt>
      <trkpt lat="43.41659" lon="5.86491">
        <ele>329.39</ele>
        <time>2019-02-10T09:28:58Z</time>
      </trkpt>
      <trkpt lat="43.41655" lon="5.86481">
        <ele>330.35</ele>
        <time>2019-02-10T09:29:04Z</time>
      </trkpt>
      <trkpt lat="43.41638" lon="5.86464">
        <ele>332.27</ele>
        <time>2019-02-10T09:29:17Z</time>
      </trkpt>
      <trkpt lat="43.41622" lon="5.86461">
        <ele>331.79</ele>
        <time>2019-02-10T09:29:26Z</time>
      </trkpt>
      <trkpt lat="43.41603" lon="5.86456">
        <ele>330.83</ele>
        <time>2019-02-10T09:29:36Z</time>
      </trkpt>
      <trkpt lat="43.41594" lon="5.8646">
        <ele>329.39</ele>
        <time>2019-02-10T09:29:39Z</time>
      </trkpt>
      <trkpt lat="43.41583" lon="5.86457">
        <ele>327.95</ele>
        <time>2019-02-10T09:29:42Z</time>
      </trkpt>
      <trkpt lat="43.41548" lon="5.86431">
        <ele>327.95</ele>
        <time>2019-02-10T09:29:56Z</time>
      </trkpt>
      <trkpt lat="43.41544" lon="5.8643">
        <ele>327.95</ele>
        <time>2019-02-10T09:29:58Z</time>
      </trkpt>
      <trkpt lat="43.41536" lon="5.86433">
        <ele>327.95</ele>
        <time>2019-02-10T09:30:02Z</time>
      </trkpt>
      <trkpt lat="43.4151" lon="5.86454">
        <ele>330.35</ele>
        <time>2019-02-10T09:30:19Z</time>
      </trkpt>
      <trkpt lat="43.41505" lon="5.86458">
        <ele>330.35</ele>
        <time>2019-02-10T09:30:24Z</time>
      </trkpt>
      <trkpt lat="43.41505" lon="5.86477">
        <ele>330.83</ele>
        <time>2019-02-10T09:30:37Z</time>
      </trkpt>
      <trkpt lat="43.41508" lon="5.86489">
        <ele>333.23</ele>
        <time>2019-02-10T09:30:51Z</time>
      </trkpt>
      <trkpt lat="43.41504" lon="5.86493">
        <ele>334.68</ele>
        <time>2019-02-10T09:31:07Z</time>
      </trkpt>
      <trkpt lat="43.41503" lon="5.86491">
        <ele>334.2</ele>
        <time>2019-02-10T09:31:20Z</time>
      </trkpt>
      <trkpt lat="43.415" lon="5.86482">
        <ele>334.2</ele>
        <time>2019-02-10T09:31:24Z</time>
      </trkpt>
      <trkpt lat="43.41496" lon="5.86472">
        <ele>333.23</ele>
        <time>2019-02-10T09:31:30Z</time>
      </trkpt>
      <trkpt lat="43.41494" lon="5.86468">
        <ele>332.75</ele>
        <time>2019-02-10T09:31:34Z</time>
      </trkpt>
      <trkpt lat="43.41487" lon="5.86459">
        <ele>333.71</ele>
        <time>2019-02-10T09:31:42Z</time>
      </trkpt>
      <trkpt lat="43.41481" lon="5.8645">
        <ele>334.2</ele>
        <time>2019-02-10T09:31:51Z</time>
      </trkpt>
      <trkpt lat="43.41477" lon="5.86446">
        <ele>334.68</ele>
        <time>2019-02-10T09:32:01Z</time>
      </trkpt>
      <trkpt lat="43.41476" lon="5.86441">
        <ele>334.68</ele>
        <time>2019-02-10T09:32:08Z</time>
      </trkpt>
      <trkpt lat="43.41475" lon="5.86436">
        <ele>334.68</ele>
        <time>2019-02-10T09:32:12Z</time>
      </trkpt>
      <trkpt lat="43.41474" lon="5.86428">
        <ele>334.68</ele>
        <time>2019-02-10T09:32:18Z</time>
      </trkpt>
      <trkpt lat="43.41469" lon="5.86424">
        <ele>336.6</ele>
        <time>2019-02-10T09:32:26Z</time>
      </trkpt>
      <trkpt lat="43.41462" lon="5.86415">
        <ele>339.48</ele>
        <time>2019-02-10T09:32:41Z</time>
      </trkpt>
      <trkpt lat="43.41456" lon="5.86413">
        <ele>341.89</ele>
        <time>2019-02-10T09:32:53Z</time>
      </trkpt>
      <trkpt lat="43.41449" lon="5.8641">
        <ele>344.29</ele>
        <time>2019-02-10T09:33:05Z</time>
      </trkpt>
      <trkpt lat="43.41437" lon="5.86402">
        <ele>346.21</ele>
        <time>2019-02-10T09:33:21Z</time>
      </trkpt>
      <trkpt lat="43.41436" lon="5.86402">
        <ele>346.21</ele>
        <time>2019-02-10T09:33:22Z</time>
      </trkpt>
      <trkpt lat="43.41423" lon="5.86404">
        <ele>349.1</ele>
        <time>2019-02-10T09:33:38Z</time>
      </trkpt>
      <trkpt lat="43.41419" lon="5.86405">
        <ele>348.62</ele>
        <time>2019-02-10T09:34:05Z</time>
      </trkpt>
      <trkpt lat="43.41422" lon="5.86404">
        <ele>348.62</ele>
        <time>2019-02-10T09:34:47Z</time>
      </trkpt>
      <trkpt lat="43.41421" lon="5.86404">
        <ele>348.62</ele>
        <time>2019-02-10T09:35:09Z</time>
      </trkpt>
      <trkpt lat="43.41422" lon="5.86403">
        <ele>348.62</ele>
        <time>2019-02-10T09:35:30Z</time>
      </trkpt>
      <trkpt lat="43.41425" lon="5.86402">
        <ele>348.13</ele>
        <time>2019-02-10T09:36:06Z</time>
      </trkpt>
      <trkpt lat="43.41423" lon="5.86405">
        <ele>348.13</ele>
        <time>2019-02-10T09:36:27Z</time>
      </trkpt>
      <trkpt lat="43.41418" lon="5.86408">
        <ele>348.13</ele>
        <time>2019-02-10T09:36:56Z</time>
      </trkpt>
      <trkpt lat="43.4142" lon="5.86392">
        <ele>348.13</ele>
        <time>2019-02-10T09:37:11Z</time>
      </trkpt>
      <trkpt lat="43.41421" lon="5.86375">
        <ele>348.62</ele>
        <time>2019-02-10T09:37:27Z</time>
      </trkpt>
      <trkpt lat="43.41421" lon="5.8637">
        <ele>348.62</ele>
        <time>2019-02-10T09:37:36Z</time>
      </trkpt>
      <trkpt lat="43.41421" lon="5.86367">
        <ele>348.62</ele>
        <time>2019-02-10T09:37:38Z</time>
      </trkpt>
      <trkpt lat="43.41425" lon="5.86335">
        <ele>347.65</ele>
        <time>2019-02-10T09:37:54Z</time>
      </trkpt>
      <trkpt lat="43.41434" lon="5.86292">
        <ele>345.73</ele>
        <time>2019-02-10T09:38:07Z</time>
      </trkpt>
      <trkpt lat="43.41433" lon="5.86289">
        <ele>345.73</ele>
        <time>2019-02-10T09:38:08Z</time>
      </trkpt>
      <trkpt lat="43.41432" lon="5.86285">
        <ele>345.73</ele>
        <time>2019-02-10T09:38:10Z</time>
      </trkpt>
      <trkpt lat="43.41426" lon="5.86272">
        <ele>348.13</ele>
        <time>2019-02-10T09:38:22Z</time>
      </trkpt>
      <trkpt lat="43.41427" lon="5.86265">
        <ele>348.62</ele>
        <time>2019-02-10T09:38:36Z</time>
      </trkpt>
      <trkpt lat="43.41429" lon="5.86257">
        <ele>348.62</ele>
        <time>2019-02-10T09:38:56Z</time>
      </trkpt>
      <trkpt lat="43.4143" lon="5.86256">
        <ele>348.62</ele>
        <time>2019-02-10T09:38:59Z</time>
      </trkpt>
      <trkpt lat="43.41435" lon="5.86256">
        <ele>347.65</ele>
        <time>2019-02-10T09:39:03Z</time>
      </trkpt>
      <trkpt lat="43.41448" lon="5.86259">
        <ele>345.73</ele>
        <time>2019-02-10T09:39:11Z</time>
      </trkpt>
      <trkpt lat="43.41467" lon="5.86256">
        <ele>344.29</ele>
        <time>2019-02-10T09:39:20Z</time>
      </trkpt>
      <trkpt lat="43.41492" lon="5.86239">
        <ele>344.29</ele>
        <time>2019-02-10T09:39:34Z</time>
      </trkpt>
      <trkpt lat="43.41518" lon="5.86185">
        <ele>341.41</ele>
        <time>2019-02-10T09:39:48Z</time>
      </trkpt>
      <trkpt lat="43.41524" lon="5.86169">
        <ele>340.44</ele>
        <time>2019-02-10T09:39:51Z</time>
      </trkpt>
      <trkpt lat="43.41532" lon="5.86148">
        <ele>338.52</ele>
        <time>2019-02-10T09:39:55Z</time>
      </trkpt>
      <trkpt lat="43.41538" lon="5.86131">
        <ele>337.56</ele>
        <time>2019-02-10T09:39:58Z</time>
      </trkpt>
      <trkpt lat="43.41547" lon="5.86109">
        <ele>335.64</ele>
        <time>2019-02-10T09:40:02Z</time>
      </trkpt>
      <trkpt lat="43.41555" lon="5.86084">
        <ele>333.23</ele>
        <time>2019-02-10T09:40:08Z</time>
      </trkpt>
      <trkpt lat="43.41563" lon="5.86031">
        <ele>329.39</ele>
        <time>2019-02-10T09:40:19Z</time>
      </trkpt>
      <trkpt lat="43.41564" lon="5.86029">
        <ele>328.91</ele>
        <time>2019-02-10T09:40:20Z</time>
      </trkpt>
      <trkpt lat="43.41574" lon="5.86007">
        <ele>326.02</ele>
        <time>2019-02-10T09:40:30Z</time>
      </trkpt>
      <trkpt lat="43.41577" lon="5.85993">
        <ele>325.06</ele>
        <time>2019-02-10T09:40:33Z</time>
      </trkpt>
      <trkpt lat="43.41576" lon="5.85986">
        <ele>325.06</ele>
        <time>2019-02-10T09:40:34Z</time>
      </trkpt>
      <trkpt lat="43.41575" lon="5.85971">
        <ele>323.62</ele>
        <time>2019-02-10T09:40:36Z</time>
      </trkpt>
      <trkpt lat="43.41574" lon="5.85963">
        <ele>323.62</ele>
        <time>2019-02-10T09:40:37Z</time>
      </trkpt>
      <trkpt lat="43.41575" lon="5.85956">
        <ele>322.66</ele>
        <time>2019-02-10T09:40:38Z</time>
      </trkpt>
      <trkpt lat="43.41575" lon="5.8595">
        <ele>321.7</ele>
        <time>2019-02-10T09:40:39Z</time>
      </trkpt>
      <trkpt lat="43.41577" lon="5.85945">
        <ele>321.7</ele>
        <time>2019-02-10T09:40:40Z</time>
      </trkpt>
      <trkpt lat="43.41579" lon="5.8594">
        <ele>321.7</ele>
        <time>2019-02-10T09:40:41Z</time>
      </trkpt>
      <trkpt lat="43.41581" lon="5.85936">
        <ele>321.22</ele>
        <time>2019-02-10T09:40:42Z</time>
      </trkpt>
      <trkpt lat="43.41584" lon="5.85933">
        <ele>321.22</ele>
        <time>2019-02-10T09:40:43Z</time>
      </trkpt>
      <trkpt lat="43.41586" lon="5.85931">
        <ele>320.74</ele>
        <time>2019-02-10T09:40:44Z</time>
      </trkpt>
      <trkpt lat="43.41589" lon="5.85928">
        <ele>320.74</ele>
        <time>2019-02-10T09:40:45Z</time>
      </trkpt>
      <trkpt lat="43.41608" lon="5.85908">
        <ele>319.78</ele>
        <time>2019-02-10T09:40:56Z</time>
      </trkpt>
      <trkpt lat="43.41616" lon="5.85904">
        <ele>319.78</ele>
        <time>2019-02-10T09:41:06Z</time>
      </trkpt>
      <trkpt lat="43.41619" lon="5.859">
        <ele>319.78</ele>
        <time>2019-02-10T09:41:20Z</time>
      </trkpt>
      <trkpt lat="43.4162" lon="5.859">
        <ele>319.78</ele>
        <time>2019-02-10T09:41:26Z</time>
      </trkpt>
      <trkpt lat="43.41621" lon="5.85899">
        <ele>321.22</ele>
        <time>2019-02-10T09:41:27Z</time>
      </trkpt>
      <trkpt lat="43.41622" lon="5.85898">
        <ele>321.22</ele>
        <time>2019-02-10T09:41:28Z</time>
      </trkpt>
      <trkpt lat="43.41624" lon="5.85897">
        <ele>321.22</ele>
        <time>2019-02-10T09:41:29Z</time>
      </trkpt>
      <trkpt lat="43.41626" lon="5.85896">
        <ele>321.7</ele>
        <time>2019-02-10T09:41:30Z</time>
      </trkpt>
      <trkpt lat="43.41628" lon="5.85895">
        <ele>321.7</ele>
        <time>2019-02-10T09:41:31Z</time>
      </trkpt>
      <trkpt lat="43.41648" lon="5.85881">
        <ele>323.14</ele>
        <time>2019-02-10T09:41:43Z</time>
      </trkpt>
      <trkpt lat="43.4165" lon="5.85882">
        <ele>324.1</ele>
        <time>2019-02-10T09:41:44Z</time>
      </trkpt>
      <trkpt lat="43.41678" lon="5.85901">
        <ele>326.02</ele>
        <time>2019-02-10T09:42:00Z</time>
      </trkpt>
      <trkpt lat="43.41708" lon="5.85901">
        <ele>327.95</ele>
        <time>2019-02-10T09:42:15Z</time>
      </trkpt>
      <trkpt lat="43.41731" lon="5.85897">
        <ele>330.83</ele>
        <time>2019-02-10T09:42:29Z</time>
      </trkpt>
      <trkpt lat="43.4176" lon="5.859">
        <ele>332.75</ele>
        <time>2019-02-10T09:42:47Z</time>
      </trkpt>
      <trkpt lat="43.41783" lon="5.85902">
        <ele>335.16</ele>
        <time>2019-02-10T09:43:02Z</time>
      </trkpt>
      <trkpt lat="43.41807" lon="5.85907">
        <ele>338.04</ele>
        <time>2019-02-10T09:43:19Z</time>
      </trkpt>
      <trkpt lat="43.41826" lon="5.85906">
        <ele>339.48</ele>
        <time>2019-02-10T09:43:30Z</time>
      </trkpt>
      <trkpt lat="43.41828" lon="5.85905">
        <ele>339.48</ele>
        <time>2019-02-10T09:43:31Z</time>
      </trkpt>
      <trkpt lat="43.41841" lon="5.859">
        <ele>343.33</ele>
        <time>2019-02-10T09:43:43Z</time>
      </trkpt>
      <trkpt lat="43.41836" lon="5.85877">
        <ele>344.77</ele>
        <time>2019-02-10T09:43:56Z</time>
      </trkpt>
      <trkpt lat="43.41843" lon="5.85853">
        <ele>345.73</ele>
        <time>2019-02-10T09:44:06Z</time>
      </trkpt>
      <trkpt lat="43.41845" lon="5.85851">
        <ele>345.73</ele>
        <time>2019-02-10T09:44:07Z</time>
      </trkpt>
      <trkpt lat="43.41847" lon="5.8585">
        <ele>345.73</ele>
        <time>2019-02-10T09:44:08Z</time>
      </trkpt>
      <trkpt lat="43.41849" lon="5.85849">
        <ele>345.73</ele>
        <time>2019-02-10T09:44:09Z</time>
      </trkpt>
      <trkpt lat="43.41851" lon="5.85849">
        <ele>345.73</ele>
        <time>2019-02-10T09:44:10Z</time>
      </trkpt>
      <trkpt lat="43.41853" lon="5.85849">
        <ele>345.73</ele>
        <time>2019-02-10T09:44:11Z</time>
      </trkpt>
      <trkpt lat="43.41856" lon="5.85848">
        <ele>345.73</ele>
        <time>2019-02-10T09:44:12Z</time>
      </trkpt>
      <trkpt lat="43.41858" lon="5.85848">
        <ele>345.73</ele>
        <time>2019-02-10T09:44:13Z</time>
      </trkpt>
      <trkpt lat="43.41889" lon="5.85835">
        <ele>347.17</ele>
        <time>2019-02-10T09:44:28Z</time>
      </trkpt>
      <trkpt lat="43.41923" lon="5.8584">
        <ele>349.1</ele>
        <time>2019-02-10T09:44:46Z</time>
      </trkpt>
      <trkpt lat="43.41951" lon="5.8585">
        <ele>350.06</ele>
        <time>2019-02-10T09:45:01Z</time>
      </trkpt>
      <trkpt lat="43.41952" lon="5.85852">
        <ele>350.06</ele>
        <time>2019-02-10T09:45:02Z</time>
      </trkpt>
      <trkpt lat="43.41952" lon="5.85854">
        <ele>350.06</ele>
        <time>2019-02-10T09:45:03Z</time>
      </trkpt>
      <trkpt lat="43.41953" lon="5.85885">
        <ele>350.54</ele>
        <time>2019-02-10T09:45:18Z</time>
      </trkpt>
      <trkpt lat="43.41953" lon="5.85887">
        <ele>350.54</ele>
        <time>2019-02-10T09:45:19Z</time>
      </trkpt>
      <trkpt lat="43.41952" lon="5.85888">
        <ele>350.54</ele>
        <time>2019-02-10T09:45:20Z</time>
      </trkpt>
      <trkpt lat="43.41951" lon="5.8589">
        <ele>350.54</ele>
        <time>2019-02-10T09:45:21Z</time>
      </trkpt>
      <trkpt lat="43.4195" lon="5.85892">
        <ele>350.54</ele>
        <time>2019-02-10T09:45:22Z</time>
      </trkpt>
      <trkpt lat="43.4195" lon="5.85894">
        <ele>350.54</ele>
        <time>2019-02-10T09:45:23Z</time>
      </trkpt>
      <trkpt lat="43.4194" lon="5.85929">
        <ele>350.54</ele>
        <time>2019-02-10T09:45:37Z</time>
      </trkpt>
      <trkpt lat="43.41941" lon="5.85967">
        <ele>349.1</ele>
        <time>2019-02-10T09:45:50Z</time>
      </trkpt>
      <trkpt lat="43.41935" lon="5.86012">
        <ele>348.62</ele>
        <time>2019-02-10T09:46:03Z</time>
      </trkpt>
      <trkpt lat="43.41925" lon="5.86062">
        <ele>347.17</ele>
        <time>2019-02-10T09:46:16Z</time>
      </trkpt>
      <trkpt lat="43.41922" lon="5.86117">
        <ele>346.69</ele>
        <time>2019-02-10T09:46:28Z</time>
      </trkpt>
      <trkpt lat="43.41922" lon="5.86165">
        <ele>346.21</ele>
        <time>2019-02-10T09:46:37Z</time>
      </trkpt>
      <trkpt lat="43.41918" lon="5.86199">
        <ele>344.29</ele>
        <time>2019-02-10T09:46:44Z</time>
      </trkpt>
      <trkpt lat="43.41919" lon="5.86207">
        <ele>344.29</ele>
        <time>2019-02-10T09:46:46Z</time>
      </trkpt>
      <trkpt lat="43.4192" lon="5.86211">
        <ele>343.81</ele>
        <time>2019-02-10T09:46:47Z</time>
      </trkpt>
      <trkpt lat="43.41947" lon="5.8625">
        <ele>342.85</ele>
        <time>2019-02-10T09:46:58Z</time>
      </trkpt>
      <trkpt lat="43.41969" lon="5.86291">
        <ele>340.92</ele>
        <time>2019-02-10T09:47:08Z</time>
      </trkpt>
      <trkpt lat="43.42003" lon="5.86324">
        <ele>339</ele>
        <time>2019-02-10T09:47:20Z</time>
      </trkpt>
      <trkpt lat="43.4201" lon="5.86333">
        <ele>335.16</ele>
        <time>2019-02-10T09:47:24Z</time>
      </trkpt>
      <trkpt lat="43.42011" lon="5.86335">
        <ele>336.12</ele>
        <time>2019-02-10T09:47:25Z</time>
      </trkpt>
      <trkpt lat="43.42015" lon="5.86342">
        <ele>335.16</ele>
        <time>2019-02-10T09:47:28Z</time>
      </trkpt>
      <trkpt lat="43.42016" lon="5.86349">
        <ele>331.79</ele>
        <time>2019-02-10T09:47:31Z</time>
      </trkpt>
      <trkpt lat="43.42016" lon="5.86351">
        <ele>333.23</ele>
        <time>2019-02-10T09:47:32Z</time>
      </trkpt>
      <trkpt lat="43.42018" lon="5.86364">
        <ele>331.79</ele>
        <time>2019-02-10T09:47:36Z</time>
      </trkpt>
      <trkpt lat="43.42018" lon="5.86381">
        <ele>328.43</ele>
        <time>2019-02-10T09:47:44Z</time>
      </trkpt>
      <trkpt lat="43.42019" lon="5.86386">
        <ele>327.95</ele>
        <time>2019-02-10T09:47:46Z</time>
      </trkpt>
      <trkpt lat="43.42018" lon="5.86395">
        <ele>325.54</ele>
        <time>2019-02-10T09:47:50Z</time>
      </trkpt>
      <trkpt lat="43.42018" lon="5.86398">
        <ele>325.54</ele>
        <time>2019-02-10T09:47:51Z</time>
      </trkpt>
      <trkpt lat="43.42018" lon="5.86406">
        <ele>324.1</ele>
        <time>2019-02-10T09:47:53Z</time>
      </trkpt>
      <trkpt lat="43.42019" lon="5.86416">
        <ele>322.18</ele>
        <time>2019-02-10T09:47:56Z</time>
      </trkpt>
      <trkpt lat="43.42002" lon="5.86473">
        <ele>320.26</ele>
        <time>2019-02-10T09:48:08Z</time>
      </trkpt>
      <trkpt lat="43.41985" lon="5.86488">
        <ele>320.26</ele>
        <time>2019-02-10T09:48:26Z</time>
      </trkpt>
      <trkpt lat="43.41981" lon="5.86489">
        <ele>320.26</ele>
        <time>2019-02-10T09:48:48Z</time>
      </trkpt>
      <trkpt lat="43.4198" lon="5.86495">
        <ele>320.26</ele>
        <time>2019-02-10T09:49:14Z</time>
      </trkpt>
      <trkpt lat="43.41965" lon="5.86507">
        <ele>320.26</ele>
        <time>2019-02-10T09:49:27Z</time>
      </trkpt>
      <trkpt lat="43.41962" lon="5.86508">
        <ele>320.26</ele>
        <time>2019-02-10T09:49:31Z</time>
      </trkpt>
      <trkpt lat="43.41963" lon="5.86506">
        <ele>320.26</ele>
        <time>2019-02-10T09:49:32Z</time>
      </trkpt>
      <trkpt lat="43.41964" lon="5.86505">
        <ele>320.26</ele>
        <time>2019-02-10T09:49:33Z</time>
      </trkpt>
      <trkpt lat="43.41966" lon="5.86503">
        <ele>320.26</ele>
        <time>2019-02-10T09:49:34Z</time>
      </trkpt>
      <trkpt lat="43.41967" lon="5.86502">
        <ele>320.26</ele>
        <time>2019-02-10T09:49:35Z</time>
      </trkpt>
      <trkpt lat="43.41969" lon="5.86501">
        <ele>320.26</ele>
        <time>2019-02-10T09:49:36Z</time>
      </trkpt>
      <trkpt lat="43.4197" lon="5.865">
        <ele>320.26</ele>
        <time>2019-02-10T09:49:37Z</time>
      </trkpt>
      <trkpt lat="43.41971" lon="5.865">
        <ele>320.26</ele>
        <time>2019-02-10T09:49:38Z</time>
      </trkpt>
      <trkpt lat="43.41978" lon="5.86496">
        <ele>320.26</ele>
        <time>2019-02-10T09:49:48Z</time>
      </trkpt>
      <trkpt lat="43.4198" lon="5.86498">
        <ele>320.26</ele>
        <time>2019-02-10T09:49:52Z</time>
      </trkpt>
      <trkpt lat="43.41983" lon="5.86502">
        <ele>319.78</ele>
        <time>2019-02-10T09:50:02Z</time>
      </trkpt>
      <trkpt lat="43.41984" lon="5.86507">
        <ele>319.78</ele>
        <time>2019-02-10T09:50:17Z</time>
      </trkpt>
      <trkpt lat="43.41979" lon="5.86511">
        <ele>319.78</ele>
        <time>2019-02-10T09:50:22Z</time>
      </trkpt>
      <trkpt lat="43.41978" lon="5.86512">
        <ele>319.78</ele>
        <time>2019-02-10T09:50:23Z</time>
      </trkpt>
      <trkpt lat="43.41977" lon="5.86512">
        <ele>319.78</ele>
        <time>2019-02-10T09:50:24Z</time>
      </trkpt>
      <trkpt lat="43.41976" lon="5.86514">
        <ele>319.78</ele>
        <time>2019-02-10T09:50:25Z</time>
      </trkpt>
      <trkpt lat="43.41974" lon="5.86516">
        <ele>319.78</ele>
        <time>2019-02-10T09:50:26Z</time>
      </trkpt>
      <trkpt lat="43.41973" lon="5.86518">
        <ele>319.78</ele>
        <time>2019-02-10T09:50:27Z</time>
      </trkpt>
      <trkpt lat="43.41971" lon="5.86519">
        <ele>319.78</ele>
        <time>2019-02-10T09:50:28Z</time>
      </trkpt>
      <trkpt lat="43.4197" lon="5.86521">
        <ele>319.78</ele>
        <time>2019-02-10T09:50:29Z</time>
      </trkpt>
      <trkpt lat="43.41951" lon="5.86556">
        <ele>319.78</ele>
        <time>2019-02-10T09:50:42Z</time>
      </trkpt>
      <trkpt lat="43.4195" lon="5.86591">
        <ele>319.78</ele>
        <time>2019-02-10T09:50:51Z</time>
      </trkpt>
      <trkpt lat="43.41954" lon="5.86635">
        <ele>318.81</ele>
        <time>2019-02-10T09:51:03Z</time>
      </trkpt>
      <trkpt lat="43.4197" lon="5.8669">
        <ele>317.37</ele>
        <time>2019-02-10T09:51:15Z</time>
      </trkpt>
      <trkpt lat="43.41972" lon="5.86695">
        <ele>317.37</ele>
        <time>2019-02-10T09:51:16Z</time>
      </trkpt>
      <trkpt lat="43.42009" lon="5.86746">
        <ele>316.89</ele>
        <time>2019-02-10T09:51:30Z</time>
      </trkpt>
      <trkpt lat="43.42035" lon="5.86765">
        <ele>316.89</ele>
        <time>2019-02-10T09:51:39Z</time>
      </trkpt>
      <trkpt lat="43.42058" lon="5.8681">
        <ele>316.41</ele>
        <time>2019-02-10T09:51:50Z</time>
      </trkpt>
      <trkpt lat="43.42077" lon="5.86857">
        <ele>316.89</ele>
        <time>2019-02-10T09:52:03Z</time>
      </trkpt>
      <trkpt lat="43.42106" lon="5.86897">
        <ele>316.89</ele>
        <time>2019-02-10T09:52:16Z</time>
      </trkpt>
      <trkpt lat="43.42132" lon="5.86896">
        <ele>317.37</ele>
        <time>2019-02-10T09:52:27Z</time>
      </trkpt>
      <trkpt lat="43.42172" lon="5.86903">
        <ele>317.85</ele>
        <time>2019-02-10T09:52:41Z</time>
      </trkpt>
      <trkpt lat="43.42208" lon="5.86906">
        <ele>317.85</ele>
        <time>2019-02-10T09:52:54Z</time>
      </trkpt>
      <trkpt lat="43.4221" lon="5.8691">
        <ele>317.85</ele>
        <time>2019-02-10T09:53:00Z</time>
      </trkpt>
      <trkpt lat="43.42209" lon="5.86911">
        <ele>317.85</ele>
        <time>2019-02-10T09:53:01Z</time>
      </trkpt>
      <trkpt lat="43.42188" lon="5.86942">
        <ele>317.37</ele>
        <time>2019-02-10T09:53:16Z</time>
      </trkpt>
      <trkpt lat="43.42157" lon="5.86979">
        <ele>316.41</ele>
        <time>2019-02-10T09:53:25Z</time>
      </trkpt>
      <trkpt lat="43.42114" lon="5.87014">
        <ele>315.93</ele>
        <time>2019-02-10T09:53:37Z</time>
      </trkpt>
      <trkpt lat="43.4211" lon="5.87016">
        <ele>315.93</ele>
        <time>2019-02-10T09:53:38Z</time>
      </trkpt>
      <trkpt lat="43.42078" lon="5.87003">
        <ele>315.93</ele>
        <time>2019-02-10T09:53:47Z</time>
      </trkpt>
      <trkpt lat="43.4207" lon="5.8699">
        <ele>315.93</ele>
        <time>2019-02-10T09:53:50Z</time>
      </trkpt>
      <trkpt lat="43.42031" lon="5.86925">
        <ele>316.89</ele>
        <time>2019-02-10T09:54:06Z</time>
      </trkpt>
      <trkpt lat="43.4199" lon="5.86866">
        <ele>317.85</ele>
        <time>2019-02-10T09:54:22Z</time>
      </trkpt>
      <trkpt lat="43.4195" lon="5.86857">
        <ele>318.81</ele>
        <time>2019-02-10T09:54:34Z</time>
      </trkpt>
      <trkpt lat="43.41892" lon="5.86859">
        <ele>319.3</ele>
        <time>2019-02-10T09:54:49Z</time>
      </trkpt>
      <trkpt lat="43.4185" lon="5.86879">
        <ele>320.26</ele>
        <time>2019-02-10T09:55:02Z</time>
      </trkpt>
      <trkpt lat="43.4181" lon="5.86914">
        <ele>320.74</ele>
        <time>2019-02-10T09:55:18Z</time>
      </trkpt>
      <trkpt lat="43.41779" lon="5.86968">
        <ele>321.7</ele>
        <time>2019-02-10T09:55:31Z</time>
      </trkpt>
      <trkpt lat="43.41757" lon="5.87002">
        <ele>322.66</ele>
        <time>2019-02-10T09:55:42Z</time>
      </trkpt>
      <trkpt lat="43.41717" lon="5.87003">
        <ele>323.14</ele>
        <time>2019-02-10T09:55:54Z</time>
      </trkpt>
      <trkpt lat="43.41627" lon="5.87005">
        <ele>324.1</ele>
        <time>2019-02-10T09:56:10Z</time>
      </trkpt>
      <trkpt lat="43.41569" lon="5.87001">
        <ele>324.1</ele>
        <time>2019-02-10T09:56:21Z</time>
      </trkpt>
      <trkpt lat="43.41527" lon="5.86976">
        <ele>324.58</ele>
        <time>2019-02-10T09:56:32Z</time>
      </trkpt>
      <trkpt lat="43.41469" lon="5.86934">
        <ele>326.02</ele>
        <time>2019-02-10T09:56:46Z</time>
      </trkpt>
      <trkpt lat="43.41432" lon="5.86931">
        <ele>326.02</ele>
        <time>2019-02-10T09:56:56Z</time>
      </trkpt>
      <trkpt lat="43.41383" lon="5.86941">
        <ele>326.5</ele>
        <time>2019-02-10T09:57:09Z</time>
      </trkpt>
      <trkpt lat="43.41327" lon="5.8693">
        <ele>326.99</ele>
        <time>2019-02-10T09:57:23Z</time>
      </trkpt>
      <trkpt lat="43.41285" lon="5.86886">
        <ele>327.95</ele>
        <time>2019-02-10T09:57:34Z</time>
      </trkpt>
      <trkpt lat="43.41249" lon="5.86818">
        <ele>328.43</ele>
        <time>2019-02-10T09:57:47Z</time>
      </trkpt>
      <trkpt lat="43.41226" lon="5.86764">
        <ele>329.87</ele>
        <time>2019-02-10T09:58:00Z</time>
      </trkpt>
      <trkpt lat="43.41207" lon="5.8669">
        <ele>331.79</ele>
        <time>2019-02-10T09:58:14Z</time>
      </trkpt>
      <trkpt lat="43.4117" lon="5.86669">
        <ele>332.27</ele>
        <time>2019-02-10T09:58:25Z</time>
      </trkpt>
      <trkpt lat="43.41121" lon="5.86686">
        <ele>332.75</ele>
        <time>2019-02-10T09:58:40Z</time>
      </trkpt>
      <trkpt lat="43.41097" lon="5.86737">
        <ele>333.23</ele>
        <time>2019-02-10T09:58:51Z</time>
      </trkpt>
      <trkpt lat="43.41088" lon="5.86768">
        <ele>333.23</ele>
        <time>2019-02-10T09:58:58Z</time>
      </trkpt>
      <trkpt lat="43.41085" lon="5.8677">
        <ele>333.23</ele>
        <time>2019-02-10T09:58:59Z</time>
      </trkpt>
      <trkpt lat="43.41037" lon="5.86762">
        <ele>333.71</ele>
        <time>2019-02-10T09:59:14Z</time>
      </trkpt>
      <trkpt lat="43.41011" lon="5.86761">
        <ele>333.71</ele>
        <time>2019-02-10T09:59:25Z</time>
      </trkpt>
      <trkpt lat="43.41009" lon="5.8676">
        <ele>333.71</ele>
        <time>2019-02-10T09:59:26Z</time>
      </trkpt>
      <trkpt lat="43.41008" lon="5.86759">
        <ele>333.71</ele>
        <time>2019-02-10T09:59:27Z</time>
      </trkpt>
      <trkpt lat="43.41003" lon="5.86754">
        <ele>333.71</ele>
        <time>2019-02-10T09:59:34Z</time>
      </trkpt>
      <trkpt lat="43.40998" lon="5.86752">
        <ele>334.2</ele>
        <time>2019-02-10T09:59:43Z</time>
      </trkpt>
      <trkpt lat="43.40997" lon="5.86751">
        <ele>334.2</ele>
        <time>2019-02-10T09:59:44Z</time>
      </trkpt>
      <trkpt lat="43.40995" lon="5.8675">
        <ele>334.2</ele>
        <time>2019-02-10T09:59:45Z</time>
      </trkpt>
      <trkpt lat="43.40994" lon="5.86748">
        <ele>334.2</ele>
        <time>2019-02-10T09:59:46Z</time>
      </trkpt>
      <trkpt lat="43.40992" lon="5.86747">
        <ele>334.2</ele>
        <time>2019-02-10T09:59:47Z</time>
      </trkpt>
      <trkpt lat="43.40991" lon="5.86744">
        <ele>334.2</ele>
        <time>2019-02-10T09:59:48Z</time>
      </trkpt>
      <trkpt lat="43.4099" lon="5.86742">
        <ele>334.68</ele>
        <time>2019-02-10T09:59:49Z</time>
      </trkpt>
      <trkpt lat="43.40968" lon="5.86693">
        <ele>334.68</ele>
        <time>2019-02-10T10:00:05Z</time>
      </trkpt>
      <trkpt lat="43.40947" lon="5.86662">
        <ele>332.75</ele>
        <time>2019-02-10T10:00:14Z</time>
      </trkpt>
      <trkpt lat="43.40914" lon="5.86641">
        <ele>332.75</ele>
        <time>2019-02-10T10:00:26Z</time>
      </trkpt>
      <trkpt lat="43.40872" lon="5.86657">
        <ele>333.71</ele>
        <time>2019-02-10T10:00:41Z</time>
      </trkpt>
      <trkpt lat="43.40831" lon="5.86671">
        <ele>334.2</ele>
        <time>2019-02-10T10:00:54Z</time>
      </trkpt>
      <trkpt lat="43.4081" lon="5.86675">
        <ele>334.2</ele>
        <time>2019-02-10T10:01:05Z</time>
      </trkpt>
      <trkpt lat="43.40802" lon="5.86675">
        <ele>334.68</ele>
        <time>2019-02-10T10:01:11Z</time>
      </trkpt>
      <trkpt lat="43.40793" lon="5.86679">
        <ele>334.68</ele>
        <time>2019-02-10T10:01:23Z</time>
      </trkpt>
      <trkpt lat="43.40784" lon="5.86685">
        <ele>335.16</ele>
        <time>2019-02-10T10:01:31Z</time>
      </trkpt>
      <trkpt lat="43.40777" lon="5.86688">
        <ele>335.16</ele>
        <time>2019-02-10T10:01:35Z</time>
      </trkpt>
      <trkpt lat="43.40775" lon="5.86689">
        <ele>335.16</ele>
        <time>2019-02-10T10:01:36Z</time>
      </trkpt>
      <trkpt lat="43.40773" lon="5.86691">
        <ele>335.64</ele>
        <time>2019-02-10T10:01:37Z</time>
      </trkpt>
      <trkpt lat="43.40771" lon="5.86693">
        <ele>335.64</ele>
        <time>2019-02-10T10:01:38Z</time>
      </trkpt>
      <trkpt lat="43.40769" lon="5.86695">
        <ele>335.64</ele>
        <time>2019-02-10T10:01:39Z</time>
      </trkpt>
      <trkpt lat="43.40767" lon="5.86697">
        <ele>335.64</ele>
        <time>2019-02-10T10:01:40Z</time>
      </trkpt>
      <trkpt lat="43.4075" lon="5.86721">
        <ele>336.12</ele>
        <time>2019-02-10T10:01:52Z</time>
      </trkpt>
      <trkpt lat="43.40741" lon="5.86729">
        <ele>336.6</ele>
        <time>2019-02-10T10:01:57Z</time>
      </trkpt>
      <trkpt lat="43.40738" lon="5.8673">
        <ele>336.6</ele>
        <time>2019-02-10T10:01:58Z</time>
      </trkpt>
      <trkpt lat="43.40735" lon="5.8673">
        <ele>336.6</ele>
        <time>2019-02-10T10:01:59Z</time>
      </trkpt>
      <trkpt lat="43.40693" lon="5.8672">
        <ele>336.6</ele>
        <time>2019-02-10T10:02:10Z</time>
      </trkpt>
      <trkpt lat="43.4065" lon="5.86711">
        <ele>337.08</ele>
        <time>2019-02-10T10:02:22Z</time>
      </trkpt>
      <trkpt lat="43.40606" lon="5.86688">
        <ele>337.56</ele>
        <time>2019-02-10T10:02:38Z</time>
      </trkpt>
      <trkpt lat="43.40584" lon="5.86676">
        <ele>338.04</ele>
        <time>2019-02-10T10:02:48Z</time>
      </trkpt>
      <trkpt lat="43.40582" lon="5.86675">
        <ele>339</ele>
        <time>2019-02-10T10:02:49Z</time>
      </trkpt>
      <trkpt lat="43.4058" lon="5.86673">
        <ele>339</ele>
        <time>2019-02-10T10:02:50Z</time>
      </trkpt>
      <trkpt lat="43.40563" lon="5.86653">
        <ele>340.92</ele>
        <time>2019-02-10T10:03:03Z</time>
      </trkpt>
      <trkpt lat="43.40561" lon="5.8665">
        <ele>341.41</ele>
        <time>2019-02-10T10:03:05Z</time>
      </trkpt>
      <trkpt lat="43.40558" lon="5.86647">
        <ele>342.85</ele>
        <time>2019-02-10T10:03:07Z</time>
      </trkpt>
      <trkpt lat="43.40557" lon="5.86644">
        <ele>342.85</ele>
        <time>2019-02-10T10:03:08Z</time>
      </trkpt>
      <trkpt lat="43.40544" lon="5.86618">
        <ele>346.21</ele>
        <time>2019-02-10T10:03:18Z</time>
      </trkpt>
      <trkpt lat="43.4054" lon="5.86611">
        <ele>347.17</ele>
        <time>2019-02-10T10:03:21Z</time>
      </trkpt>
      <trkpt lat="43.40519" lon="5.86595">
        <ele>350.54</ele>
        <time>2019-02-10T10:03:32Z</time>
      </trkpt>
      <trkpt lat="43.40517" lon="5.86592">
        <ele>350.54</ele>
        <time>2019-02-10T10:03:34Z</time>
      </trkpt>
      <trkpt lat="43.4051" lon="5.86585">
        <ele>351.5</ele>
        <time>2019-02-10T10:03:40Z</time>
      </trkpt>
      <trkpt lat="43.40508" lon="5.86584">
        <ele>351.5</ele>
        <time>2019-02-10T10:03:41Z</time>
      </trkpt>
      <trkpt lat="43.40506" lon="5.86582">
        <ele>351.98</ele>
        <time>2019-02-10T10:03:42Z</time>
      </trkpt>
      <trkpt lat="43.40505" lon="5.86581">
        <ele>351.98</ele>
        <time>2019-02-10T10:03:43Z</time>
      </trkpt>
      <trkpt lat="43.40503" lon="5.86579">
        <ele>351.98</ele>
        <time>2019-02-10T10:03:44Z</time>
      </trkpt>
      <trkpt lat="43.40472" lon="5.86564">
        <ele>353.42</ele>
        <time>2019-02-10T10:03:58Z</time>
      </trkpt>
      <trkpt lat="43.4047" lon="5.8656">
        <ele>352.94</ele>
        <time>2019-02-10T10:04:16Z</time>
      </trkpt>
      <trkpt lat="43.40472" lon="5.86558">
        <ele>352.94</ele>
        <time>2019-02-10T10:04:23Z</time>
      </trkpt>
      <trkpt lat="43.40491" lon="5.86529">
        <ele>352.94</ele>
        <time>2019-02-10T10:04:34Z</time>
      </trkpt>
      <trkpt lat="43.40532" lon="5.86476">
        <ele>352.94</ele>
        <time>2019-02-10T10:04:52Z</time>
      </trkpt>
      <trkpt lat="43.40573" lon="5.86422">
        <ele>352.46</ele>
        <time>2019-02-10T10:05:10Z</time>
      </trkpt>
      <trkpt lat="43.40617" lon="5.86364">
        <ele>352.46</ele>
        <time>2019-02-10T10:05:30Z</time>
      </trkpt>
      <trkpt lat="43.40651" lon="5.86308">
        <ele>351.98</ele>
        <time>2019-02-10T10:05:47Z</time>
      </trkpt>
      <trkpt lat="43.40688" lon="5.86242">
        <ele>351.98</ele>
        <time>2019-02-10T10:06:06Z</time>
      </trkpt>
      <trkpt lat="43.40728" lon="5.86171">
        <ele>351.98</ele>
        <time>2019-02-10T10:06:25Z</time>
      </trkpt>
      <trkpt lat="43.40765" lon="5.86101">
        <ele>351.5</ele>
        <time>2019-02-10T10:06:44Z</time>
      </trkpt>
      <trkpt lat="43.40804" lon="5.86047">
        <ele>351.5</ele>
        <time>2019-02-10T10:07:02Z</time>
      </trkpt>
      <trkpt lat="43.40819" lon="5.86034">
        <ele>351.5</ele>
        <time>2019-02-10T10:07:12Z</time>
      </trkpt>
      <trkpt lat="43.40825" lon="5.86035">
        <ele>352.46</ele>
        <time>2019-02-10T10:07:23Z</time>
      </trkpt>
      <trkpt lat="43.40826" lon="5.86034">
        <ele>352.46</ele>
        <time>2019-02-10T10:07:24Z</time>
      </trkpt>
      <trkpt lat="43.40831" lon="5.86029">
        <ele>352.46</ele>
        <time>2019-02-10T10:07:27Z</time>
      </trkpt>
      <trkpt lat="43.40856" lon="5.85998">
        <ele>352.46</ele>
        <time>2019-02-10T10:07:37Z</time>
      </trkpt>
      <trkpt lat="43.40861" lon="5.85992">
        <ele>354.86</ele>
        <time>2019-02-10T10:07:39Z</time>
      </trkpt>
      <trkpt lat="43.40864" lon="5.85991">
        <ele>354.86</ele>
        <time>2019-02-10T10:07:40Z</time>
      </trkpt>
      <trkpt lat="43.40875" lon="5.85985">
        <ele>355.34</ele>
        <time>2019-02-10T10:07:45Z</time>
      </trkpt>
      <trkpt lat="43.40896" lon="5.85964">
        <ele>358.23</ele>
        <time>2019-02-10T10:08:01Z</time>
      </trkpt>
      <trkpt lat="43.40927" lon="5.85943">
        <ele>356.79</ele>
        <time>2019-02-10T10:08:18Z</time>
      </trkpt>
      <trkpt lat="43.40961" lon="5.8594">
        <ele>353.42</ele>
        <time>2019-02-10T10:08:30Z</time>
      </trkpt>
      <trkpt lat="43.40995" lon="5.85928">
        <ele>352.94</ele>
        <time>2019-02-10T10:08:42Z</time>
      </trkpt>
      <trkpt lat="43.41028" lon="5.85942">
        <ele>352.46</ele>
        <time>2019-02-10T10:08:55Z</time>
      </trkpt>
      <trkpt lat="43.41065" lon="5.85959">
        <ele>352.46</ele>
        <time>2019-02-10T10:09:10Z</time>
      </trkpt>
      <trkpt lat="43.41104" lon="5.85993">
        <ele>353.9</ele>
        <time>2019-02-10T10:09:25Z</time>
      </trkpt>
      <trkpt lat="43.41116" lon="5.86004">
        <ele>352.46</ele>
        <time>2019-02-10T10:09:31Z</time>
      </trkpt>
      <trkpt lat="43.41118" lon="5.86004">
        <ele>352.46</ele>
        <time>2019-02-10T10:09:32Z</time>
      </trkpt>
      <trkpt lat="43.41148" lon="5.86017">
        <ele>351.98</ele>
        <time>2019-02-10T10:09:44Z</time>
      </trkpt>
      <trkpt lat="43.41164" lon="5.86028">
        <ele>353.42</ele>
        <time>2019-02-10T10:09:50Z</time>
      </trkpt>
      <trkpt lat="43.412" lon="5.86051">
        <ele>355.83</ele>
        <time>2019-02-10T10:10:05Z</time>
      </trkpt>
      <trkpt lat="43.41209" lon="5.86072">
        <ele>356.31</ele>
        <time>2019-02-10T10:10:14Z</time>
      </trkpt>
      <trkpt lat="43.41211" lon="5.86075">
        <ele>356.31</ele>
        <time>2019-02-10T10:10:15Z</time>
      </trkpt>
      <trkpt lat="43.41213" lon="5.86078">
        <ele>356.31</ele>
        <time>2019-02-10T10:10:16Z</time>
      </trkpt>
      <trkpt lat="43.41214" lon="5.86081">
        <ele>356.31</ele>
        <time>2019-02-10T10:10:17Z</time>
      </trkpt>
      <trkpt lat="43.41216" lon="5.86085">
        <ele>356.31</ele>
        <time>2019-02-10T10:10:18Z</time>
      </trkpt>
      <trkpt lat="43.41217" lon="5.86088">
        <ele>356.31</ele>
        <time>2019-02-10T10:10:19Z</time>
      </trkpt>
      <trkpt lat="43.41218" lon="5.86091">
        <ele>356.79</ele>
        <time>2019-02-10T10:10:20Z</time>
      </trkpt>
      <trkpt lat="43.41219" lon="5.86094">
        <ele>356.79</ele>
        <time>2019-02-10T10:10:21Z</time>
      </trkpt>
      <trkpt lat="43.41245" lon="5.8614">
        <ele>356.79</ele>
        <time>2019-02-10T10:10:35Z</time>
      </trkpt>
      <trkpt lat="43.41275" lon="5.86174">
        <ele>356.79</ele>
        <time>2019-02-10T10:10:46Z</time>
      </trkpt>
      <trkpt lat="43.41322" lon="5.86203">
        <ele>358.23</ele>
        <time>2019-02-10T10:11:01Z</time>
      </trkpt>
      <trkpt lat="43.41353" lon="5.86214">
        <ele>356.79</ele>
        <time>2019-02-10T10:11:12Z</time>
      </trkpt>
      <trkpt lat="43.41388" lon="5.86234">
        <ele>353.9</ele>
        <time>2019-02-10T10:11:25Z</time>
      </trkpt>
      <trkpt lat="43.4141" lon="5.86247">
        <ele>351.02</ele>
        <time>2019-02-10T10:11:34Z</time>
      </trkpt>
      <trkpt lat="43.41442" lon="5.86261">
        <ele>348.62</ele>
        <time>2019-02-10T10:11:45Z</time>
      </trkpt>
      <trkpt lat="43.41479" lon="5.86249">
        <ele>347.65</ele>
        <time>2019-02-10T10:11:57Z</time>
      </trkpt>
      <trkpt lat="43.41522" lon="5.8619">
        <ele>344.29</ele>
        <time>2019-02-10T10:12:10Z</time>
      </trkpt>
      <trkpt lat="43.4154" lon="5.86142">
        <ele>341.41</ele>
        <time>2019-02-10T10:12:18Z</time>
      </trkpt>
      <trkpt lat="43.41548" lon="5.86123">
        <ele>339.48</ele>
        <time>2019-02-10T10:12:21Z</time>
      </trkpt>
      <trkpt lat="43.41559" lon="5.86092">
        <ele>336.12</ele>
        <time>2019-02-10T10:12:27Z</time>
      </trkpt>
      <trkpt lat="43.4156" lon="5.86086">
        <ele>336.12</ele>
        <time>2019-02-10T10:12:28Z</time>
      </trkpt>
      <trkpt lat="43.41563" lon="5.86065">
        <ele>334.68</ele>
        <time>2019-02-10T10:12:32Z</time>
      </trkpt>
      <trkpt lat="43.41571" lon="5.8602">
        <ele>331.31</ele>
        <time>2019-02-10T10:12:42Z</time>
      </trkpt>
      <trkpt lat="43.41572" lon="5.86018">
        <ele>330.83</ele>
        <time>2019-02-10T10:12:43Z</time>
      </trkpt>
      <trkpt lat="43.41581" lon="5.85996">
        <ele>329.39</ele>
        <time>2019-02-10T10:12:55Z</time>
      </trkpt>
      <trkpt lat="43.41585" lon="5.85953">
        <ele>326.02</ele>
        <time>2019-02-10T10:13:09Z</time>
      </trkpt>
      <trkpt lat="43.41587" lon="5.85932">
        <ele>323.62</ele>
        <time>2019-02-10T10:13:13Z</time>
      </trkpt>
      <trkpt lat="43.4159" lon="5.85927">
        <ele>323.62</ele>
        <time>2019-02-10T10:13:14Z</time>
      </trkpt>
      <trkpt lat="43.41608" lon="5.85907">
        <ele>322.18</ele>
        <time>2019-02-10T10:13:24Z</time>
      </trkpt>
      <trkpt lat="43.41614" lon="5.85903">
        <ele>321.7</ele>
        <time>2019-02-10T10:13:37Z</time>
      </trkpt>
      <trkpt lat="43.41623" lon="5.85896">
        <ele>321.7</ele>
        <time>2019-02-10T10:13:50Z</time>
      </trkpt>
      <trkpt lat="43.41639" lon="5.85884">
        <ele>323.14</ele>
        <time>2019-02-10T10:14:09Z</time>
      </trkpt>
      <trkpt lat="43.4165" lon="5.85878">
        <ele>324.58</ele>
        <time>2019-02-10T10:14:22Z</time>
      </trkpt>
      <trkpt lat="43.41662" lon="5.85886">
        <ele>325.54</ele>
        <time>2019-02-10T10:14:34Z</time>
      </trkpt>
      <trkpt lat="43.41675" lon="5.85901">
        <ele>326.5</ele>
        <time>2019-02-10T10:14:50Z</time>
      </trkpt>
      <trkpt lat="43.41691" lon="5.85907">
        <ele>326.5</ele>
        <time>2019-02-10T10:15:07Z</time>
      </trkpt>
      <trkpt lat="43.41709" lon="5.85907">
        <ele>327.47</ele>
        <time>2019-02-10T10:15:26Z</time>
      </trkpt>
      <trkpt lat="43.41725" lon="5.85906">
        <ele>329.39</ele>
        <time>2019-02-10T10:15:46Z</time>
      </trkpt>
      <trkpt lat="43.41742" lon="5.85904">
        <ele>330.35</ele>
        <time>2019-02-10T10:16:04Z</time>
      </trkpt>
      <trkpt lat="43.41757" lon="5.85903">
        <ele>332.27</ele>
        <time>2019-02-10T10:16:22Z</time>
      </trkpt>
      <trkpt lat="43.41773" lon="5.85901">
        <ele>333.71</ele>
        <time>2019-02-10T10:16:39Z</time>
      </trkpt>
      <trkpt lat="43.4179" lon="5.85902">
        <ele>334.68</ele>
        <time>2019-02-10T10:16:55Z</time>
      </trkpt>
      <trkpt lat="43.41806" lon="5.85906">
        <ele>336.6</ele>
        <time>2019-02-10T10:17:13Z</time>
      </trkpt>
      <trkpt lat="43.41825" lon="5.8591">
        <ele>338.04</ele>
        <time>2019-02-10T10:17:32Z</time>
      </trkpt>
      <trkpt lat="43.41843" lon="5.8591">
        <ele>339.48</ele>
        <time>2019-02-10T10:17:50Z</time>
      </trkpt>
      <trkpt lat="43.41856" lon="5.85902">
        <ele>341.41</ele>
        <time>2019-02-10T10:18:05Z</time>
      </trkpt>
      <trkpt lat="43.41856" lon="5.85886">
        <ele>343.33</ele>
        <time>2019-02-10T10:18:20Z</time>
      </trkpt>
      <trkpt lat="43.41851" lon="5.85876">
        <ele>344.29</ele>
        <time>2019-02-10T10:18:30Z</time>
      </trkpt>
      <trkpt lat="43.41844" lon="5.85865">
        <ele>345.73</ele>
        <time>2019-02-10T10:18:41Z</time>
      </trkpt>
      <trkpt lat="43.41844" lon="5.85863">
        <ele>345.73</ele>
        <time>2019-02-10T10:18:42Z</time>
      </trkpt>
      <trkpt lat="43.41844" lon="5.85851">
        <ele>346.21</ele>
        <time>2019-02-10T10:18:51Z</time>
      </trkpt>
      <trkpt lat="43.41852" lon="5.85833">
        <ele>346.21</ele>
        <time>2019-02-10T10:19:07Z</time>
      </trkpt>
      <trkpt lat="43.41876" lon="5.8583">
        <ele>346.69</ele>
        <time>2019-02-10T10:19:21Z</time>
      </trkpt>
      <trkpt lat="43.41915" lon="5.85832">
        <ele>348.62</ele>
        <time>2019-02-10T10:19:38Z</time>
      </trkpt>
      <trkpt lat="43.41953" lon="5.85851">
        <ele>350.06</ele>
        <time>2019-02-10T10:19:54Z</time>
      </trkpt>
      <trkpt lat="43.41988" lon="5.85867">
        <ele>350.54</ele>
        <time>2019-02-10T10:20:08Z</time>
      </trkpt>
      <trkpt lat="43.4201" lon="5.85874">
        <ele>349.1</ele>
        <time>2019-02-10T10:20:14Z</time>
      </trkpt>
      <trkpt lat="43.42055" lon="5.85894">
        <ele>348.62</ele>
        <time>2019-02-10T10:20:28Z</time>
      </trkpt>
      <trkpt lat="43.42087" lon="5.85907">
        <ele>348.62</ele>
        <time>2019-02-10T10:20:38Z</time>
      </trkpt>
      <trkpt lat="43.42112" lon="5.85919">
        <ele>348.13</ele>
        <time>2019-02-10T10:20:44Z</time>
      </trkpt>
      <trkpt lat="43.42116" lon="5.8592">
        <ele>348.13</ele>
        <time>2019-02-10T10:20:45Z</time>
      </trkpt>
      <trkpt lat="43.4212" lon="5.85921">
        <ele>348.13</ele>
        <time>2019-02-10T10:20:46Z</time>
      </trkpt>
      <trkpt lat="43.42124" lon="5.85922">
        <ele>348.13</ele>
        <time>2019-02-10T10:20:47Z</time>
      </trkpt>
      <trkpt lat="43.42128" lon="5.85922">
        <ele>348.13</ele>
        <time>2019-02-10T10:20:48Z</time>
      </trkpt>
      <trkpt lat="43.42132" lon="5.85923">
        <ele>348.13</ele>
        <time>2019-02-10T10:20:49Z</time>
      </trkpt>
      <trkpt lat="43.42178" lon="5.85928">
        <ele>349.58</ele>
        <time>2019-02-10T10:21:02Z</time>
      </trkpt>
      <trkpt lat="43.42237" lon="5.85921">
        <ele>347.65</ele>
        <time>2019-02-10T10:21:17Z</time>
      </trkpt>
      <trkpt lat="43.42277" lon="5.85904">
        <ele>347.65</ele>
        <time>2019-02-10T10:21:28Z</time>
      </trkpt>
      <trkpt lat="43.42296" lon="5.85895">
        <ele>349.1</ele>
        <time>2019-02-10T10:21:34Z</time>
      </trkpt>
      <trkpt lat="43.4234" lon="5.85871">
        <ele>351.02</ele>
        <time>2019-02-10T10:21:50Z</time>
      </trkpt>
      <trkpt lat="43.42385" lon="5.85846">
        <ele>351.02</ele>
        <time>2019-02-10T10:22:08Z</time>
      </trkpt>
      <trkpt lat="43.42391" lon="5.85842">
        <ele>349.58</ele>
        <time>2019-02-10T10:22:10Z</time>
      </trkpt>
      <trkpt lat="43.42435" lon="5.8581">
        <ele>348.13</ele>
        <time>2019-02-10T10:22:22Z</time>
      </trkpt>
      <trkpt lat="43.42452" lon="5.85801">
        <ele>347.65</ele>
        <time>2019-02-10T10:22:25Z</time>
      </trkpt>
      <trkpt lat="43.42508" lon="5.85775">
        <ele>347.65</ele>
        <time>2019-02-10T10:22:38Z</time>
      </trkpt>
      <trkpt lat="43.42519" lon="5.85768">
        <ele>349.1</ele>
        <time>2019-02-10T10:22:41Z</time>
      </trkpt>
      <trkpt lat="43.4256" lon="5.8574">
        <ele>350.06</ele>
        <time>2019-02-10T10:22:53Z</time>
      </trkpt>
      <trkpt lat="43.42565" lon="5.85737">
        <ele>350.06</ele>
        <time>2019-02-10T10:22:54Z</time>
      </trkpt>
      <trkpt lat="43.42575" lon="5.85731">
        <ele>350.06</ele>
        <time>2019-02-10T10:22:56Z</time>
      </trkpt>
      <trkpt lat="43.42581" lon="5.85729">
        <ele>348.62</ele>
        <time>2019-02-10T10:22:57Z</time>
      </trkpt>
      <trkpt lat="43.42588" lon="5.85726">
        <ele>348.62</ele>
        <time>2019-02-10T10:22:58Z</time>
      </trkpt>
      <trkpt lat="43.42669" lon="5.85713">
        <ele>345.73</ele>
        <time>2019-02-10T10:23:10Z</time>
      </trkpt>
      <trkpt lat="43.42687" lon="5.85712">
        <ele>347.17</ele>
        <time>2019-02-10T10:23:14Z</time>
      </trkpt>
      <trkpt lat="43.42706" lon="5.8571">
        <ele>347.65</ele>
        <time>2019-02-10T10:23:19Z</time>
      </trkpt>
      <trkpt lat="43.4275" lon="5.85714">
        <ele>348.13</ele>
        <time>2019-02-10T10:23:29Z</time>
      </trkpt>
      <trkpt lat="43.42817" lon="5.85725">
        <ele>348.62</ele>
        <time>2019-02-10T10:23:46Z</time>
      </trkpt>
      <trkpt lat="43.42843" lon="5.85729">
        <ele>349.1</ele>
        <time>2019-02-10T10:23:54Z</time>
      </trkpt>
      <trkpt lat="43.42846" lon="5.85725">
        <ele>349.1</ele>
        <time>2019-02-10T10:23:55Z</time>
      </trkpt>
      <trkpt lat="43.42848" lon="5.85723">
        <ele>349.1</ele>
        <time>2019-02-10T10:23:56Z</time>
      </trkpt>
      <trkpt lat="43.42883" lon="5.85661">
        <ele>350.54</ele>
        <time>2019-02-10T10:24:13Z</time>
      </trkpt>
      <trkpt lat="43.42912" lon="5.85622">
        <ele>353.42</ele>
        <time>2019-02-10T10:24:26Z</time>
      </trkpt>
      <trkpt lat="43.42953" lon="5.85587">
        <ele>354.86</ele>
        <time>2019-02-10T10:24:42Z</time>
      </trkpt>
      <trkpt lat="43.42987" lon="5.8555">
        <ele>354.86</ele>
        <time>2019-02-10T10:24:54Z</time>
      </trkpt>
      <trkpt lat="43.42994" lon="5.85541">
        <ele>353.42</ele>
        <time>2019-02-10T10:24:56Z</time>
      </trkpt>
      <trkpt lat="43.42997" lon="5.85536">
        <ele>353.42</ele>
        <time>2019-02-10T10:24:57Z</time>
      </trkpt>
      <trkpt lat="43.43038" lon="5.85471">
        <ele>351.5</ele>
        <time>2019-02-10T10:25:09Z</time>
      </trkpt>
      <trkpt lat="43.43092" lon="5.85386">
        <ele>351.02</ele>
        <time>2019-02-10T10:25:27Z</time>
      </trkpt>
      <trkpt lat="43.43125" lon="5.85368">
        <ele>351.02</ele>
        <time>2019-02-10T10:25:38Z</time>
      </trkpt>
      <trkpt lat="43.43188" lon="5.8541">
        <ele>350.06</ele>
        <time>2019-02-10T10:25:52Z</time>
      </trkpt>
      <trkpt lat="43.43241" lon="5.85433">
        <ele>349.58</ele>
        <time>2019-02-10T10:26:05Z</time>
      </trkpt>
      <trkpt lat="43.43278" lon="5.85448">
        <ele>351.02</ele>
        <time>2019-02-10T10:26:15Z</time>
      </trkpt>
      <trkpt lat="43.43325" lon="5.85468">
        <ele>353.9</ele>
        <time>2019-02-10T10:26:31Z</time>
      </trkpt>
      <trkpt lat="43.43369" lon="5.85485">
        <ele>355.34</ele>
        <time>2019-02-10T10:26:47Z</time>
      </trkpt>
      <trkpt lat="43.43419" lon="5.85507">
        <ele>357.27</ele>
        <time>2019-02-10T10:27:05Z</time>
      </trkpt>
      <trkpt lat="43.43468" lon="5.85531">
        <ele>360.63</ele>
        <time>2019-02-10T10:27:23Z</time>
      </trkpt>
      <trkpt lat="43.4352" lon="5.85553">
        <ele>363.52</ele>
        <time>2019-02-10T10:27:42Z</time>
      </trkpt>
      <trkpt lat="43.43553" lon="5.8556">
        <ele>364.96</ele>
        <time>2019-02-10T10:27:55Z</time>
      </trkpt>
      <trkpt lat="43.43596" lon="5.8555">
        <ele>364.96</ele>
        <time>2019-02-10T10:28:08Z</time>
      </trkpt>
      <trkpt lat="43.43645" lon="5.85606">
        <ele>364</ele>
        <time>2019-02-10T10:28:23Z</time>
      </trkpt>
      <trkpt lat="43.43714" lon="5.85697">
        <ele>362.55</ele>
        <time>2019-02-10T10:28:42Z</time>
      </trkpt>
      <trkpt lat="43.43726" lon="5.85714">
        <ele>362.07</ele>
        <time>2019-02-10T10:28:45Z</time>
      </trkpt>
      <trkpt lat="43.43734" lon="5.85724">
        <ele>362.07</ele>
        <time>2019-02-10T10:28:47Z</time>
      </trkpt>
      <trkpt lat="43.43737" lon="5.85729">
        <ele>362.07</ele>
        <time>2019-02-10T10:28:48Z</time>
      </trkpt>
      <trkpt lat="43.43789" lon="5.85827">
        <ele>360.63</ele>
        <time>2019-02-10T10:29:05Z</time>
      </trkpt>
      <trkpt lat="43.43843" lon="5.8591">
        <ele>358.23</ele>
        <time>2019-02-10T10:29:21Z</time>
      </trkpt>
      <trkpt lat="43.43894" lon="5.86021">
        <ele>355.83</ele>
        <time>2019-02-10T10:29:38Z</time>
      </trkpt>
      <trkpt lat="43.43939" lon="5.86125">
        <ele>352.94</ele>
        <time>2019-02-10T10:29:54Z</time>
      </trkpt>
      <trkpt lat="43.43954" lon="5.86164">
        <ele>351.98</ele>
        <time>2019-02-10T10:30:00Z</time>
      </trkpt>
      <trkpt lat="43.43974" lon="5.86228">
        <ele>348.62</ele>
        <time>2019-02-10T10:30:09Z</time>
      </trkpt>
      <trkpt lat="43.43993" lon="5.86287">
        <ele>345.73</ele>
        <time>2019-02-10T10:30:20Z</time>
      </trkpt>
      <trkpt lat="43.44003" lon="5.86296">
        <ele>344.77</ele>
        <time>2019-02-10T10:30:23Z</time>
      </trkpt>
      <trkpt lat="43.44006" lon="5.86298">
        <ele>344.77</ele>
        <time>2019-02-10T10:30:24Z</time>
      </trkpt>
      <trkpt lat="43.44011" lon="5.86299">
        <ele>344.77</ele>
        <time>2019-02-10T10:30:25Z</time>
      </trkpt>
      <trkpt lat="43.44015" lon="5.863">
        <ele>344.77</ele>
        <time>2019-02-10T10:30:26Z</time>
      </trkpt>
      <trkpt lat="43.4402" lon="5.863">
        <ele>344.29</ele>
        <time>2019-02-10T10:30:27Z</time>
      </trkpt>
      <trkpt lat="43.44025" lon="5.863">
        <ele>344.29</ele>
        <time>2019-02-10T10:30:28Z</time>
      </trkpt>
      <trkpt lat="43.4403" lon="5.863">
        <ele>343.81</ele>
        <time>2019-02-10T10:30:29Z</time>
      </trkpt>
      <trkpt lat="43.44037" lon="5.86296">
        <ele>343.81</ele>
        <time>2019-02-10T10:30:31Z</time>
      </trkpt>
      <trkpt lat="43.44038" lon="5.86291">
        <ele>343.81</ele>
        <time>2019-02-10T10:30:32Z</time>
      </trkpt>
      <trkpt lat="43.44038" lon="5.86285">
        <ele>343.33</ele>
        <time>2019-02-10T10:30:33Z</time>
      </trkpt>
      <trkpt lat="43.44037" lon="5.8627">
        <ele>345.25</ele>
        <time>2019-02-10T10:30:36Z</time>
      </trkpt>
      <trkpt lat="43.44032" lon="5.86227">
        <ele>348.62</ele>
        <time>2019-02-10T10:30:45Z</time>
      </trkpt>
      <trkpt lat="43.44025" lon="5.8617">
        <ele>351.02</ele>
        <time>2019-02-10T10:30:59Z</time>
      </trkpt>
      <trkpt lat="43.44024" lon="5.86167">
        <ele>351.02</ele>
        <time>2019-02-10T10:31:00Z</time>
      </trkpt>
      <trkpt lat="43.44021" lon="5.86165">
        <ele>351.5</ele>
        <time>2019-02-10T10:31:01Z</time>
      </trkpt>
      <trkpt lat="43.43995" lon="5.86151">
        <ele>351.98</ele>
        <time>2019-02-10T10:31:11Z</time>
      </trkpt>
      <trkpt lat="43.43978" lon="5.86111">
        <ele>353.42</ele>
        <time>2019-02-10T10:31:24Z</time>
      </trkpt>
      <trkpt lat="43.43967" lon="5.86081">
        <ele>355.34</ele>
        <time>2019-02-10T10:31:33Z</time>
      </trkpt>
      <trkpt lat="43.43966" lon="5.86078">
        <ele>355.34</ele>
        <time>2019-02-10T10:31:34Z</time>
      </trkpt>
      <trkpt lat="43.43974" lon="5.86049">
        <ele>354.86</ele>
        <time>2019-02-10T10:31:42Z</time>
      </trkpt>
      <trkpt lat="43.43974" lon="5.86046">
        <ele>354.86</ele>
        <time>2019-02-10T10:31:43Z</time>
      </trkpt>
      <trkpt lat="43.43973" lon="5.86044">
        <ele>355.34</ele>
        <time>2019-02-10T10:31:44Z</time>
      </trkpt>
      <trkpt lat="43.43972" lon="5.86033">
        <ele>355.83</ele>
        <time>2019-02-10T10:31:55Z</time>
      </trkpt>
      <trkpt lat="43.43974" lon="5.86033">
        <ele>355.34</ele>
        <time>2019-02-10T10:32:38Z</time>
      </trkpt>
      <trkpt lat="43.43973" lon="5.8603">
        <ele>355.34</ele>
        <time>2019-02-10T10:33:21Z</time>
      </trkpt>
      <trkpt lat="43.43976" lon="5.8603">
        <ele>354.86</ele>
        <time>2019-02-10T10:34:10Z</time>
      </trkpt>
      <trkpt lat="43.43974" lon="5.86029">
        <ele>354.86</ele>
        <time>2019-02-10T10:34:45Z</time>
      </trkpt>
      <trkpt lat="43.43973" lon="5.86027">
        <ele>355.83</ele>
        <time>2019-02-10T10:35:03Z</time>
      </trkpt>
      <trkpt lat="43.4397" lon="5.86027">
        <ele>355.83</ele>
        <time>2019-02-10T10:35:49Z</time>
      </trkpt>
      <trkpt lat="43.43969" lon="5.86025">
        <ele>355.34</ele>
        <time>2019-02-10T10:36:35Z</time>
      </trkpt>
      <trkpt lat="43.43969" lon="5.86026">
        <ele>355.34</ele>
        <time>2019-02-10T10:37:10Z</time>
      </trkpt>
      <trkpt lat="43.43969" lon="5.86025">
        <ele>354.86</ele>
        <time>2019-02-10T10:37:46Z</time>
      </trkpt>
      <trkpt lat="43.4397" lon="5.86026">
        <ele>353.9</ele>
        <time>2019-02-10T10:38:08Z</time>
      </trkpt>
      <trkpt lat="43.43972" lon="5.86027">
        <ele>352.94</ele>
        <time>2019-02-10T10:38:40Z</time>
      </trkpt>
      <trkpt lat="43.43973" lon="5.86029">
        <ele>352.46</ele>
        <time>2019-02-10T10:39:04Z</time>
      </trkpt>
      <trkpt lat="43.43973" lon="5.8603">
        <ele>352.46</ele>
        <time>2019-02-10T10:39:19Z</time>
      </trkpt>
      <trkpt lat="43.43975" lon="5.8603">
        <ele>351.5</ele>
        <time>2019-02-10T10:39:50Z</time>
      </trkpt>
      <trkpt lat="43.43976" lon="5.86031">
        <ele>351.5</ele>
        <time>2019-02-10T10:40:28Z</time>
      </trkpt>
      <trkpt lat="43.43973" lon="5.86031">
        <ele>351.02</ele>
        <time>2019-02-10T10:41:00Z</time>
      </trkpt>
      <trkpt lat="43.43975" lon="5.86032">
        <ele>351.02</ele>
        <time>2019-02-10T10:41:31Z</time>
      </trkpt>
      <trkpt lat="43.43977" lon="5.86031">
        <ele>351.02</ele>
        <time>2019-02-10T10:41:51Z</time>
      </trkpt>
      <trkpt lat="43.43978" lon="5.86031">
        <ele>351.02</ele>
        <time>2019-02-10T10:42:12Z</time>
      </trkpt>
      <trkpt lat="43.43976" lon="5.86032">
        <ele>350.54</ele>
        <time>2019-02-10T10:42:30Z</time>
      </trkpt>
      <trkpt lat="43.43974" lon="5.86025">
        <ele>351.98</ele>
        <time>2019-02-10T10:42:54Z</time>
      </trkpt>
      <trkpt lat="43.4396" lon="5.86024">
        <ele>351.5</ele>
        <time>2019-02-10T10:43:14Z</time>
      </trkpt>
      <trkpt lat="43.43957" lon="5.86025">
        <ele>351.5</ele>
        <time>2019-02-10T10:43:34Z</time>
      </trkpt>
    </trkseg>
  </trk>
</gpx>